<?xml version="1.0" encoding="UTF-8" standalone="no" ?>
<gpx xmlns="http://www.topografix.com/GPX/1/1" xmlns:xsi="http://www.w3.org/2001/XMLSchema-instance" xsi:schemaLocation="http://www.topografix.com/GPX/1/1 http://www.topografix.com/GPX/1/1/gpx.xsd" version="1.1" creator="VisuGPX - https://www.visugpx.com">
  <metadata>
    <name>Autour de Jouy en Josas (Gare de Vauboyen)</name>
    <desc><![CDATA[Belle randonnée, une grande partie ombragée mais avec des dénivelés importants]]></desc>
  </metadata>
  <trk>
    <name><![CDATA[17 mai 2015]]></name>
    <cmt><![CDATA[10:15:46]]></cmt>
    <desc><![CDATA[belle randonnée avec  une grande partie ombragée et des dénivelés]]></desc>
    <trkseg>
      <trkpt lat="48.75946" lon="2.19247">
        <ele>84</ele>
        <time>2015-05-17T10:15:46 +0200</time>
      </trkpt>
      <trkpt lat="48.75946" lon="2.19247">
        <ele>84</ele>
        <time>2015-05-17T10:15:47 +0200</time>
      </trkpt>
      <trkpt lat="48.7595" lon="2.19243">
        <ele>84</ele>
        <time>2015-05-17T10:19:28 +0200</time>
      </trkpt>
      <trkpt lat="48.75982" lon="2.19269">
        <ele>76</ele>
        <time>2015-05-17T10:19:59 +0200</time>
      </trkpt>
      <trkpt lat="48.76007" lon="2.19288">
        <ele>75</ele>
        <time>2015-05-17T10:20:17 +0200</time>
      </trkpt>
      <trkpt lat="48.76035" lon="2.1932">
        <ele>73</ele>
        <time>2015-05-17T10:20:50 +0200</time>
      </trkpt>
      <trkpt lat="48.76053" lon="2.19355">
        <ele>74</ele>
        <time>2015-05-17T10:21:21 +0200</time>
      </trkpt>
      <trkpt lat="48.76069" lon="2.19408">
        <ele>73</ele>
        <time>2015-05-17T10:21:53 +0200</time>
      </trkpt>
      <trkpt lat="48.76087" lon="2.19453">
        <ele>76</ele>
        <time>2015-05-17T10:22:23 +0200</time>
      </trkpt>
      <trkpt lat="48.76091" lon="2.19456">
        <ele>76</ele>
        <time>2015-05-17T10:22:26 +0200</time>
      </trkpt>
      <trkpt lat="48.76095" lon="2.19467">
        <ele>77</ele>
        <time>2015-05-17T10:22:33 +0200</time>
      </trkpt>
      <trkpt lat="48.76097" lon="2.19473">
        <ele>77</ele>
        <time>2015-05-17T10:22:38 +0200</time>
      </trkpt>
      <trkpt lat="48.761" lon="2.19476">
        <ele>77</ele>
        <time>2015-05-17T10:22:42 +0200</time>
      </trkpt>
      <trkpt lat="48.76128" lon="2.19513">
        <ele>79</ele>
        <time>2015-05-17T10:23:19 +0200</time>
      </trkpt>
      <trkpt lat="48.76131" lon="2.19519">
        <ele>79</ele>
        <time>2015-05-17T10:23:24 +0200</time>
      </trkpt>
      <trkpt lat="48.76137" lon="2.19537">
        <ele>78</ele>
        <time>2015-05-17T10:23:33 +0200</time>
      </trkpt>
      <trkpt lat="48.7614" lon="2.19542">
        <ele>78</ele>
        <time>2015-05-17T10:23:38 +0200</time>
      </trkpt>
      <trkpt lat="48.76154" lon="2.19538">
        <ele>78</ele>
        <time>2015-05-17T10:24:07 +0200</time>
      </trkpt>
      <trkpt lat="48.76163" lon="2.19504">
        <ele>81</ele>
        <time>2015-05-17T10:24:29 +0200</time>
      </trkpt>
      <trkpt lat="48.76174" lon="2.19507">
        <ele>82</ele>
        <time>2015-05-17T10:24:39 +0200</time>
      </trkpt>
      <trkpt lat="48.76205" lon="2.19501">
        <ele>90</ele>
        <time>2015-05-17T10:25:09 +0200</time>
      </trkpt>
      <trkpt lat="48.7621" lon="2.195">
        <ele>91</ele>
        <time>2015-05-17T10:25:14 +0200</time>
      </trkpt>
      <trkpt lat="48.76213" lon="2.19503">
        <ele>91</ele>
        <time>2015-05-17T10:25:18 +0200</time>
      </trkpt>
      <trkpt lat="48.76215" lon="2.1952">
        <ele>95</ele>
        <time>2015-05-17T10:25:30 +0200</time>
      </trkpt>
      <trkpt lat="48.76216" lon="2.1954">
        <ele>97</ele>
        <time>2015-05-17T10:25:42 +0200</time>
      </trkpt>
      <trkpt lat="48.76219" lon="2.19588">
        <ele>98</ele>
        <time>2015-05-17T10:26:12 +0200</time>
      </trkpt>
      <trkpt lat="48.76222" lon="2.19611">
        <ele>100</ele>
        <time>2015-05-17T10:26:25 +0200</time>
      </trkpt>
      <trkpt lat="48.76227" lon="2.19632">
        <ele>104</ele>
        <time>2015-05-17T10:26:41 +0200</time>
      </trkpt>
      <trkpt lat="48.76229" lon="2.19665">
        <ele>106</ele>
        <time>2015-05-17T10:27:11 +0200</time>
      </trkpt>
      <trkpt lat="48.76232" lon="2.19712">
        <ele>107</ele>
        <time>2015-05-17T10:27:45 +0200</time>
      </trkpt>
      <trkpt lat="48.76234" lon="2.19761">
        <ele>110</ele>
        <time>2015-05-17T10:28:17 +0200</time>
      </trkpt>
      <trkpt lat="48.76242" lon="2.19792">
        <ele>111</ele>
        <time>2015-05-17T10:28:35 +0200</time>
      </trkpt>
      <trkpt lat="48.76245" lon="2.19797">
        <ele>111</ele>
        <time>2015-05-17T10:28:38 +0200</time>
      </trkpt>
      <trkpt lat="48.76245" lon="2.19804">
        <ele>111</ele>
        <time>2015-05-17T10:28:43 +0200</time>
      </trkpt>
      <trkpt lat="48.76262" lon="2.1984">
        <ele>113</ele>
        <time>2015-05-17T10:29:08 +0200</time>
      </trkpt>
      <trkpt lat="48.76286" lon="2.19847">
        <ele>118</ele>
        <time>2015-05-17T10:29:28 +0200</time>
      </trkpt>
      <trkpt lat="48.7629" lon="2.19847">
        <ele>120</ele>
        <time>2015-05-17T10:29:33 +0200</time>
      </trkpt>
      <trkpt lat="48.76293" lon="2.19851">
        <ele>121</ele>
        <time>2015-05-17T10:29:37 +0200</time>
      </trkpt>
      <trkpt lat="48.76297" lon="2.19852">
        <ele>122</ele>
        <time>2015-05-17T10:29:41 +0200</time>
      </trkpt>
      <trkpt lat="48.76311" lon="2.19853">
        <ele>128</ele>
        <time>2015-05-17T10:29:53 +0200</time>
      </trkpt>
      <trkpt lat="48.76314" lon="2.19857">
        <ele>130</ele>
        <time>2015-05-17T10:29:58 +0200</time>
      </trkpt>
      <trkpt lat="48.76336" lon="2.19903">
        <ele>133</ele>
        <time>2015-05-17T10:30:28 +0200</time>
      </trkpt>
      <trkpt lat="48.76343" lon="2.1993">
        <ele>132</ele>
        <time>2015-05-17T10:30:47 +0200</time>
      </trkpt>
      <trkpt lat="48.76335" lon="2.19973">
        <ele>137</ele>
        <time>2015-05-17T10:31:19 +0200</time>
      </trkpt>
      <trkpt lat="48.76333" lon="2.20012">
        <ele>137</ele>
        <time>2015-05-17T10:31:54 +0200</time>
      </trkpt>
      <trkpt lat="48.76332" lon="2.20018">
        <ele>139</ele>
        <time>2015-05-17T10:32:03 +0200</time>
      </trkpt>
      <trkpt lat="48.76333" lon="2.2003">
        <ele>140</ele>
        <time>2015-05-17T10:32:18 +0200</time>
      </trkpt>
      <trkpt lat="48.76334" lon="2.20036">
        <ele>142</ele>
        <time>2015-05-17T10:32:25 +0200</time>
      </trkpt>
      <trkpt lat="48.76341" lon="2.20037">
        <ele>143</ele>
        <time>2015-05-17T10:32:40 +0200</time>
      </trkpt>
      <trkpt lat="48.76367" lon="2.2">
        <ele>149</ele>
        <time>2015-05-17T10:33:15 +0200</time>
      </trkpt>
      <trkpt lat="48.76398" lon="2.1998">
        <ele>149</ele>
        <time>2015-05-17T10:33:46 +0200</time>
      </trkpt>
      <trkpt lat="48.76427" lon="2.19952">
        <ele>153</ele>
        <time>2015-05-17T10:34:16 +0200</time>
      </trkpt>
      <trkpt lat="48.76452" lon="2.19934">
        <ele>154</ele>
        <time>2015-05-17T10:34:39 +0200</time>
      </trkpt>
      <trkpt lat="48.76489" lon="2.1992">
        <ele>155</ele>
        <time>2015-05-17T10:35:09 +0200</time>
      </trkpt>
      <trkpt lat="48.76502" lon="2.199">
        <ele>154</ele>
        <time>2015-05-17T10:35:26 +0200</time>
      </trkpt>
      <trkpt lat="48.76502" lon="2.19885">
        <ele>154</ele>
        <time>2015-05-17T10:35:35 +0200</time>
      </trkpt>
      <trkpt lat="48.76482" lon="2.19826">
        <ele>150</ele>
        <time>2015-05-17T10:36:07 +0200</time>
      </trkpt>
      <trkpt lat="48.76478" lon="2.19796">
        <ele>149</ele>
        <time>2015-05-17T10:36:22 +0200</time>
      </trkpt>
      <trkpt lat="48.7648" lon="2.19791">
        <ele>148</ele>
        <time>2015-05-17T10:36:25 +0200</time>
      </trkpt>
      <trkpt lat="48.76479" lon="2.19785">
        <ele>148</ele>
        <time>2015-05-17T10:36:29 +0200</time>
      </trkpt>
      <trkpt lat="48.76478" lon="2.19779">
        <ele>149</ele>
        <time>2015-05-17T10:36:33 +0200</time>
      </trkpt>
      <trkpt lat="48.76473" lon="2.19768">
        <ele>150</ele>
        <time>2015-05-17T10:36:44 +0200</time>
      </trkpt>
      <trkpt lat="48.7646" lon="2.19768">
        <ele>153</ele>
        <time>2015-05-17T10:36:59 +0200</time>
      </trkpt>
      <trkpt lat="48.76428" lon="2.19788">
        <ele>154</ele>
        <time>2015-05-17T10:37:29 +0200</time>
      </trkpt>
      <trkpt lat="48.76401" lon="2.19789">
        <ele>149</ele>
        <time>2015-05-17T10:37:55 +0200</time>
      </trkpt>
      <trkpt lat="48.76364" lon="2.1978">
        <ele>149</ele>
        <time>2015-05-17T10:38:25 +0200</time>
      </trkpt>
      <trkpt lat="48.76322" lon="2.19776">
        <ele>149</ele>
        <time>2015-05-17T10:38:57 +0200</time>
      </trkpt>
      <trkpt lat="48.76296" lon="2.19784">
        <ele>146</ele>
        <time>2015-05-17T10:39:21 +0200</time>
      </trkpt>
      <trkpt lat="48.76282" lon="2.19772">
        <ele>144</ele>
        <time>2015-05-17T10:39:33 +0200</time>
      </trkpt>
      <trkpt lat="48.7628" lon="2.19766">
        <ele>143</ele>
        <time>2015-05-17T10:39:38 +0200</time>
      </trkpt>
      <trkpt lat="48.76276" lon="2.1975">
        <ele>142</ele>
        <time>2015-05-17T10:39:48 +0200</time>
      </trkpt>
      <trkpt lat="48.76278" lon="2.19697">
        <ele>142</ele>
        <time>2015-05-17T10:40:15 +0200</time>
      </trkpt>
      <trkpt lat="48.76278" lon="2.1969">
        <ele>142</ele>
        <time>2015-05-17T10:40:20 +0200</time>
      </trkpt>
      <trkpt lat="48.76293" lon="2.19648">
        <ele>137</ele>
        <time>2015-05-17T10:40:56 +0200</time>
      </trkpt>
      <trkpt lat="48.76295" lon="2.19637">
        <ele>138</ele>
        <time>2015-05-17T10:41:09 +0200</time>
      </trkpt>
      <trkpt lat="48.76307" lon="2.19629">
        <ele>138</ele>
        <time>2015-05-17T10:41:19 +0200</time>
      </trkpt>
      <trkpt lat="48.76326" lon="2.19611">
        <ele>135</ele>
        <time>2015-05-17T10:41:44 +0200</time>
      </trkpt>
      <trkpt lat="48.76332" lon="2.19589">
        <ele>133</ele>
        <time>2015-05-17T10:41:57 +0200</time>
      </trkpt>
      <trkpt lat="48.76341" lon="2.1957">
        <ele>129</ele>
        <time>2015-05-17T10:42:09 +0200</time>
      </trkpt>
      <trkpt lat="48.76346" lon="2.19557">
        <ele>129</ele>
        <time>2015-05-17T10:42:18 +0200</time>
      </trkpt>
      <trkpt lat="48.76376" lon="2.19543">
        <ele>126</ele>
        <time>2015-05-17T10:42:42 +0200</time>
      </trkpt>
      <trkpt lat="48.76379" lon="2.19539">
        <ele>125</ele>
        <time>2015-05-17T10:42:46 +0200</time>
      </trkpt>
      <trkpt lat="48.76401" lon="2.1952">
        <ele>126</ele>
        <time>2015-05-17T10:43:06 +0200</time>
      </trkpt>
      <trkpt lat="48.76406" lon="2.19509">
        <ele>128</ele>
        <time>2015-05-17T10:43:14 +0200</time>
      </trkpt>
      <trkpt lat="48.76407" lon="2.19501">
        <ele>128</ele>
        <time>2015-05-17T10:43:19 +0200</time>
      </trkpt>
      <trkpt lat="48.76407" lon="2.19495">
        <ele>129</ele>
        <time>2015-05-17T10:43:25 +0200</time>
      </trkpt>
      <trkpt lat="48.76404" lon="2.1949">
        <ele>130</ele>
        <time>2015-05-17T10:43:31 +0200</time>
      </trkpt>
      <trkpt lat="48.76397" lon="2.19486">
        <ele>132</ele>
        <time>2015-05-17T10:43:56 +0200</time>
      </trkpt>
      <trkpt lat="48.76391" lon="2.19486">
        <ele>132</ele>
        <time>2015-05-17T10:44:12 +0200</time>
      </trkpt>
      <trkpt lat="48.76391" lon="2.19473">
        <ele>132</ele>
        <time>2015-05-17T10:44:29 +0200</time>
      </trkpt>
      <trkpt lat="48.76389" lon="2.19477">
        <ele>131</ele>
        <time>2015-05-17T10:45:14 +0200</time>
      </trkpt>
      <trkpt lat="48.76396" lon="2.19486">
        <ele>131</ele>
        <time>2015-05-17T10:45:51 +0200</time>
      </trkpt>
      <trkpt lat="48.76394" lon="2.19494">
        <ele>131</ele>
        <time>2015-05-17T10:46:46 +0200</time>
      </trkpt>
      <trkpt lat="48.76377" lon="2.19518">
        <ele>128</ele>
        <time>2015-05-17T10:47:16 +0200</time>
      </trkpt>
      <trkpt lat="48.76351" lon="2.19538">
        <ele>121</ele>
        <time>2015-05-17T10:47:42 +0200</time>
      </trkpt>
      <trkpt lat="48.76324" lon="2.19556">
        <ele>120</ele>
        <time>2015-05-17T10:48:15 +0200</time>
      </trkpt>
      <trkpt lat="48.76302" lon="2.19574">
        <ele>122</ele>
        <time>2015-05-17T10:48:24 +0200</time>
      </trkpt>
      <trkpt lat="48.76297" lon="2.19571">
        <ele>123</ele>
        <time>2015-05-17T10:48:28 +0200</time>
      </trkpt>
      <trkpt lat="48.76295" lon="2.19566">
        <ele>124</ele>
        <time>2015-05-17T10:48:31 +0200</time>
      </trkpt>
      <trkpt lat="48.76292" lon="2.19562">
        <ele>124</ele>
        <time>2015-05-17T10:48:35 +0200</time>
      </trkpt>
      <trkpt lat="48.76292" lon="2.19555">
        <ele>124</ele>
        <time>2015-05-17T10:48:40 +0200</time>
      </trkpt>
      <trkpt lat="48.76303" lon="2.19539">
        <ele>124</ele>
        <time>2015-05-17T10:48:50 +0200</time>
      </trkpt>
      <trkpt lat="48.76341" lon="2.19515">
        <ele>118</ele>
        <time>2015-05-17T10:49:22 +0200</time>
      </trkpt>
      <trkpt lat="48.76361" lon="2.19473">
        <ele>113</ele>
        <time>2015-05-17T10:49:56 +0200</time>
      </trkpt>
      <trkpt lat="48.76367" lon="2.19465">
        <ele>112</ele>
        <time>2015-05-17T10:50:05 +0200</time>
      </trkpt>
      <trkpt lat="48.76376" lon="2.19463">
        <ele>111</ele>
        <time>2015-05-17T10:50:12 +0200</time>
      </trkpt>
      <trkpt lat="48.76406" lon="2.19423">
        <ele>110</ele>
        <time>2015-05-17T10:50:42 +0200</time>
      </trkpt>
      <trkpt lat="48.76417" lon="2.19403">
        <ele>109</ele>
        <time>2015-05-17T10:50:55 +0200</time>
      </trkpt>
      <trkpt lat="48.7642" lon="2.19339">
        <ele>106</ele>
        <time>2015-05-17T10:51:32 +0200</time>
      </trkpt>
      <trkpt lat="48.76415" lon="2.19317">
        <ele>107</ele>
        <time>2015-05-17T10:51:44 +0200</time>
      </trkpt>
      <trkpt lat="48.76412" lon="2.19313">
        <ele>107</ele>
        <time>2015-05-17T10:51:45 +0200</time>
      </trkpt>
      <trkpt lat="48.76392" lon="2.19265">
        <ele>108</ele>
        <time>2015-05-17T10:52:12 +0200</time>
      </trkpt>
      <trkpt lat="48.76389" lon="2.19207">
        <ele>108</ele>
        <time>2015-05-17T10:52:43 +0200</time>
      </trkpt>
      <trkpt lat="48.76392" lon="2.19187">
        <ele>105</ele>
        <time>2015-05-17T10:52:54 +0200</time>
      </trkpt>
      <trkpt lat="48.76386" lon="2.19136">
        <ele>101</ele>
        <time>2015-05-17T10:53:18 +0200</time>
      </trkpt>
      <trkpt lat="48.76385" lon="2.19122">
        <ele>102</ele>
        <time>2015-05-17T10:53:22 +0200</time>
      </trkpt>
      <trkpt lat="48.76362" lon="2.19075">
        <ele>105</ele>
        <time>2015-05-17T10:53:55 +0200</time>
      </trkpt>
      <trkpt lat="48.76365" lon="2.1902">
        <ele>102</ele>
        <time>2015-05-17T10:54:27 +0200</time>
      </trkpt>
      <trkpt lat="48.76368" lon="2.19013">
        <ele>101</ele>
        <time>2015-05-17T10:54:33 +0200</time>
      </trkpt>
      <trkpt lat="48.76363" lon="2.18992">
        <ele>98</ele>
        <time>2015-05-17T10:54:48 +0200</time>
      </trkpt>
      <trkpt lat="48.76355" lon="2.18978">
        <ele>98</ele>
        <time>2015-05-17T10:54:54 +0200</time>
      </trkpt>
      <trkpt lat="48.76351" lon="2.18976">
        <ele>99</ele>
        <time>2015-05-17T10:55:01 +0200</time>
      </trkpt>
      <trkpt lat="48.76342" lon="2.18982">
        <ele>99</ele>
        <time>2015-05-17T10:55:10 +0200</time>
      </trkpt>
      <trkpt lat="48.7634" lon="2.1899">
        <ele>100</ele>
        <time>2015-05-17T10:55:13 +0200</time>
      </trkpt>
      <trkpt lat="48.76337" lon="2.19019">
        <ele>100</ele>
        <time>2015-05-17T10:55:30 +0200</time>
      </trkpt>
      <trkpt lat="48.76329" lon="2.19063">
        <ele>100</ele>
        <time>2015-05-17T10:55:58 +0200</time>
      </trkpt>
      <trkpt lat="48.76327" lon="2.19067">
        <ele>100</ele>
        <time>2015-05-17T10:56:01 +0200</time>
      </trkpt>
      <trkpt lat="48.76322" lon="2.19066">
        <ele>99</ele>
        <time>2015-05-17T10:56:04 +0200</time>
      </trkpt>
      <trkpt lat="48.76313" lon="2.1906">
        <ele>99</ele>
        <time>2015-05-17T10:56:11 +0200</time>
      </trkpt>
      <trkpt lat="48.76292" lon="2.19015">
        <ele>96</ele>
        <time>2015-05-17T10:56:43 +0200</time>
      </trkpt>
      <trkpt lat="48.76288" lon="2.19">
        <ele>97</ele>
        <time>2015-05-17T10:57:12 +0200</time>
      </trkpt>
      <trkpt lat="48.76285" lon="2.18966">
        <ele>97</ele>
        <time>2015-05-17T10:57:32 +0200</time>
      </trkpt>
      <trkpt lat="48.76296" lon="2.18909">
        <ele>94</ele>
        <time>2015-05-17T10:58:02 +0200</time>
      </trkpt>
      <trkpt lat="48.76301" lon="2.18887">
        <ele>93</ele>
        <time>2015-05-17T10:58:15 +0200</time>
      </trkpt>
      <trkpt lat="48.76313" lon="2.18866">
        <ele>94</ele>
        <time>2015-05-17T10:58:29 +0200</time>
      </trkpt>
      <trkpt lat="48.76334" lon="2.18813">
        <ele>92</ele>
        <time>2015-05-17T10:59:00 +0200</time>
      </trkpt>
      <trkpt lat="48.7634" lon="2.18784">
        <ele>88</ele>
        <time>2015-05-17T10:59:15 +0200</time>
      </trkpt>
      <trkpt lat="48.7634" lon="2.18778">
        <ele>87</ele>
        <time>2015-05-17T10:59:19 +0200</time>
      </trkpt>
      <trkpt lat="48.76342" lon="2.18763">
        <ele>87</ele>
        <time>2015-05-17T10:59:27 +0200</time>
      </trkpt>
      <trkpt lat="48.76357" lon="2.18711">
        <ele>90</ele>
        <time>2015-05-17T10:59:59 +0200</time>
      </trkpt>
      <trkpt lat="48.76359" lon="2.18705">
        <ele>90</ele>
        <time>2015-05-17T11:00:05 +0200</time>
      </trkpt>
      <trkpt lat="48.7636" lon="2.18697">
        <ele>91</ele>
        <time>2015-05-17T11:00:07 +0200</time>
      </trkpt>
      <trkpt lat="48.76363" lon="2.18692">
        <ele>92</ele>
        <time>2015-05-17T11:00:12 +0200</time>
      </trkpt>
      <trkpt lat="48.76391" lon="2.18654">
        <ele>92</ele>
        <time>2015-05-17T11:00:43 +0200</time>
      </trkpt>
      <trkpt lat="48.76424" lon="2.18638">
        <ele>95</ele>
        <time>2015-05-17T11:01:13 +0200</time>
      </trkpt>
      <trkpt lat="48.76435" lon="2.18629">
        <ele>95</ele>
        <time>2015-05-17T11:01:24 +0200</time>
      </trkpt>
      <trkpt lat="48.76447" lon="2.18628">
        <ele>97</ele>
        <time>2015-05-17T11:01:34 +0200</time>
      </trkpt>
      <trkpt lat="48.7649" lon="2.18628">
        <ele>101</ele>
        <time>2015-05-17T11:02:09 +0200</time>
      </trkpt>
      <trkpt lat="48.7653" lon="2.18641">
        <ele>105</ele>
        <time>2015-05-17T11:02:42 +0200</time>
      </trkpt>
      <trkpt lat="48.76565" lon="2.18637">
        <ele>109</ele>
        <time>2015-05-17T11:03:14 +0200</time>
      </trkpt>
      <trkpt lat="48.76578" lon="2.18646">
        <ele>109</ele>
        <time>2015-05-17T11:03:23 +0200</time>
      </trkpt>
      <trkpt lat="48.76595" lon="2.18639">
        <ele>108</ele>
        <time>2015-05-17T11:03:37 +0200</time>
      </trkpt>
      <trkpt lat="48.76598" lon="2.18627">
        <ele>108</ele>
        <time>2015-05-17T11:03:44 +0200</time>
      </trkpt>
      <trkpt lat="48.76596" lon="2.18579">
        <ele>105</ele>
        <time>2015-05-17T11:04:14 +0200</time>
      </trkpt>
      <trkpt lat="48.76617" lon="2.18519">
        <ele>102</ele>
        <time>2015-05-17T11:04:47 +0200</time>
      </trkpt>
      <trkpt lat="48.76638" lon="2.18475">
        <ele>103</ele>
        <time>2015-05-17T11:05:17 +0200</time>
      </trkpt>
      <trkpt lat="48.7665" lon="2.18416">
        <ele>106</ele>
        <time>2015-05-17T11:05:47 +0200</time>
      </trkpt>
      <trkpt lat="48.76649" lon="2.184">
        <ele>104</ele>
        <time>2015-05-17T11:05:55 +0200</time>
      </trkpt>
      <trkpt lat="48.76626" lon="2.18363">
        <ele>100</ele>
        <time>2015-05-17T11:06:25 +0200</time>
      </trkpt>
      <trkpt lat="48.76623" lon="2.18308">
        <ele>99</ele>
        <time>2015-05-17T11:06:56 +0200</time>
      </trkpt>
      <trkpt lat="48.76641" lon="2.18253">
        <ele>99</ele>
        <time>2015-05-17T11:07:28 +0200</time>
      </trkpt>
      <trkpt lat="48.76661" lon="2.18203">
        <ele>99</ele>
        <time>2015-05-17T11:08:02 +0200</time>
      </trkpt>
      <trkpt lat="48.76686" lon="2.18193">
        <ele>100</ele>
        <time>2015-05-17T11:08:42 +0200</time>
      </trkpt>
      <trkpt lat="48.76715" lon="2.18176">
        <ele>102</ele>
        <time>2015-05-17T11:09:14 +0200</time>
      </trkpt>
      <trkpt lat="48.76742" lon="2.18164">
        <ele>107</ele>
        <time>2015-05-17T11:09:48 +0200</time>
      </trkpt>
      <trkpt lat="48.76778" lon="2.18168">
        <ele>113</ele>
        <time>2015-05-17T11:10:20 +0200</time>
      </trkpt>
      <trkpt lat="48.76813" lon="2.18156">
        <ele>118</ele>
        <time>2015-05-17T11:10:58 +0200</time>
      </trkpt>
      <trkpt lat="48.76821" lon="2.18145">
        <ele>119</ele>
        <time>2015-05-17T11:11:06 +0200</time>
      </trkpt>
      <trkpt lat="48.7683" lon="2.18142">
        <ele>120</ele>
        <time>2015-05-17T11:11:14 +0200</time>
      </trkpt>
      <trkpt lat="48.7686" lon="2.18167">
        <ele>120</ele>
        <time>2015-05-17T11:11:49 +0200</time>
      </trkpt>
      <trkpt lat="48.76862" lon="2.18171">
        <ele>120</ele>
        <time>2015-05-17T11:11:56 +0200</time>
      </trkpt>
      <trkpt lat="48.76872" lon="2.18176">
        <ele>124</ele>
        <time>2015-05-17T11:12:27 +0200</time>
      </trkpt>
      <trkpt lat="48.76885" lon="2.18179">
        <ele>126</ele>
        <time>2015-05-17T11:12:35 +0200</time>
      </trkpt>
      <trkpt lat="48.76903" lon="2.18198">
        <ele>129</ele>
        <time>2015-05-17T11:12:44 +0200</time>
      </trkpt>
      <trkpt lat="48.76911" lon="2.18206">
        <ele>133</ele>
        <time>2015-05-17T11:12:53 +0200</time>
      </trkpt>
      <trkpt lat="48.76918" lon="2.1821">
        <ele>135</ele>
        <time>2015-05-17T11:13:06 +0200</time>
      </trkpt>
      <trkpt lat="48.76934" lon="2.18223">
        <ele>138</ele>
        <time>2015-05-17T11:13:25 +0200</time>
      </trkpt>
      <trkpt lat="48.76948" lon="2.18244">
        <ele>143</ele>
        <time>2015-05-17T11:14:00 +0200</time>
      </trkpt>
      <trkpt lat="48.76956" lon="2.18252">
        <ele>149</ele>
        <time>2015-05-17T11:14:15 +0200</time>
      </trkpt>
      <trkpt lat="48.76965" lon="2.1826">
        <ele>150</ele>
        <time>2015-05-17T11:14:28 +0200</time>
      </trkpt>
      <trkpt lat="48.77009" lon="2.18294">
        <ele>155</ele>
        <time>2015-05-17T11:15:01 +0200</time>
      </trkpt>
      <trkpt lat="48.77017" lon="2.18303">
        <ele>156</ele>
        <time>2015-05-17T11:15:09 +0200</time>
      </trkpt>
      <trkpt lat="48.77028" lon="2.18343">
        <ele>159</ele>
        <time>2015-05-17T11:15:44 +0200</time>
      </trkpt>
      <trkpt lat="48.77028" lon="2.18368">
        <ele>156</ele>
        <time>2015-05-17T11:16:22 +0200</time>
      </trkpt>
      <trkpt lat="48.77031" lon="2.18377">
        <ele>154</ele>
        <time>2015-05-17T11:16:29 +0200</time>
      </trkpt>
      <trkpt lat="48.77041" lon="2.18385">
        <ele>154</ele>
        <time>2015-05-17T11:16:36 +0200</time>
      </trkpt>
      <trkpt lat="48.77044" lon="2.18391">
        <ele>155</ele>
        <time>2015-05-17T11:16:42 +0200</time>
      </trkpt>
      <trkpt lat="48.77053" lon="2.18407">
        <ele>158</ele>
        <time>2015-05-17T11:16:56 +0200</time>
      </trkpt>
      <trkpt lat="48.77062" lon="2.18408">
        <ele>159</ele>
        <time>2015-05-17T11:17:02 +0200</time>
      </trkpt>
      <trkpt lat="48.77082" lon="2.18424">
        <ele>162</ele>
        <time>2015-05-17T11:17:19 +0200</time>
      </trkpt>
      <trkpt lat="48.77086" lon="2.18426">
        <ele>165</ele>
        <time>2015-05-17T11:18:24 +0200</time>
      </trkpt>
      <trkpt lat="48.77085" lon="2.18432">
        <ele>167</ele>
        <time>2015-05-17T11:18:56 +0200</time>
      </trkpt>
      <trkpt lat="48.77083" lon="2.18441">
        <ele>167</ele>
        <time>2015-05-17T11:19:09 +0200</time>
      </trkpt>
      <trkpt lat="48.77083" lon="2.18445">
        <ele>167</ele>
        <time>2015-05-17T11:19:12 +0200</time>
      </trkpt>
      <trkpt lat="48.77091" lon="2.1844">
        <ele>169</ele>
        <time>2015-05-17T11:19:35 +0200</time>
      </trkpt>
      <trkpt lat="48.77098" lon="2.18437">
        <ele>172</ele>
        <time>2015-05-17T11:19:44 +0200</time>
      </trkpt>
      <trkpt lat="48.77109" lon="2.1843">
        <ele>173</ele>
        <time>2015-05-17T11:20:23 +0200</time>
      </trkpt>
      <trkpt lat="48.77103" lon="2.18436">
        <ele>174</ele>
        <time>2015-05-17T11:21:04 +0200</time>
      </trkpt>
      <trkpt lat="48.77099" lon="2.18436">
        <ele>174</ele>
        <time>2015-05-17T11:21:07 +0200</time>
      </trkpt>
      <trkpt lat="48.77092" lon="2.18449">
        <ele>173</ele>
        <time>2015-05-17T11:21:16 +0200</time>
      </trkpt>
      <trkpt lat="48.77095" lon="2.18452">
        <ele>172</ele>
        <time>2015-05-17T11:22:11 +0200</time>
      </trkpt>
      <trkpt lat="48.77099" lon="2.18453">
        <ele>172</ele>
        <time>2015-05-17T11:22:23 +0200</time>
      </trkpt>
      <trkpt lat="48.77104" lon="2.18447">
        <ele>171</ele>
        <time>2015-05-17T11:22:54 +0200</time>
      </trkpt>
      <trkpt lat="48.77105" lon="2.18441">
        <ele>171</ele>
        <time>2015-05-17T11:22:59 +0200</time>
      </trkpt>
      <trkpt lat="48.7711" lon="2.18438">
        <ele>171</ele>
        <time>2015-05-17T11:23:33 +0200</time>
      </trkpt>
      <trkpt lat="48.7714" lon="2.18406">
        <ele>171</ele>
        <time>2015-05-17T11:24:05 +0200</time>
      </trkpt>
      <trkpt lat="48.77171" lon="2.18357">
        <ele>168</ele>
        <time>2015-05-17T11:24:37 +0200</time>
      </trkpt>
      <trkpt lat="48.77196" lon="2.18338">
        <ele>168</ele>
        <time>2015-05-17T11:25:06 +0200</time>
      </trkpt>
      <trkpt lat="48.77226" lon="2.183">
        <ele>168</ele>
        <time>2015-05-17T11:25:36 +0200</time>
      </trkpt>
      <trkpt lat="48.77229" lon="2.18298">
        <ele>168</ele>
        <time>2015-05-17T11:25:39 +0200</time>
      </trkpt>
      <trkpt lat="48.7723" lon="2.18292">
        <ele>169</ele>
        <time>2015-05-17T11:25:42 +0200</time>
      </trkpt>
      <trkpt lat="48.77235" lon="2.18282">
        <ele>169</ele>
        <time>2015-05-17T11:25:48 +0200</time>
      </trkpt>
      <trkpt lat="48.77238" lon="2.18279">
        <ele>170</ele>
        <time>2015-05-17T11:25:52 +0200</time>
      </trkpt>
      <trkpt lat="48.77245" lon="2.18275">
        <ele>170</ele>
        <time>2015-05-17T11:25:58 +0200</time>
      </trkpt>
      <trkpt lat="48.77272" lon="2.18239">
        <ele>170</ele>
        <time>2015-05-17T11:26:28 +0200</time>
      </trkpt>
      <trkpt lat="48.77304" lon="2.18194">
        <ele>170</ele>
        <time>2015-05-17T11:27:00 +0200</time>
      </trkpt>
      <trkpt lat="48.77334" lon="2.18156">
        <ele>171</ele>
        <time>2015-05-17T11:27:30 +0200</time>
      </trkpt>
      <trkpt lat="48.77351" lon="2.18099">
        <ele>172</ele>
        <time>2015-05-17T11:28:02 +0200</time>
      </trkpt>
      <trkpt lat="48.77338" lon="2.18055">
        <ele>170</ele>
        <time>2015-05-17T11:28:33 +0200</time>
      </trkpt>
      <trkpt lat="48.77328" lon="2.18022">
        <ele>169</ele>
        <time>2015-05-17T11:28:56 +0200</time>
      </trkpt>
      <trkpt lat="48.77306" lon="2.17974">
        <ele>164</ele>
        <time>2015-05-17T11:29:26 +0200</time>
      </trkpt>
      <trkpt lat="48.77302" lon="2.17963">
        <ele>162</ele>
        <time>2015-05-17T11:29:31 +0200</time>
      </trkpt>
      <trkpt lat="48.77271" lon="2.17913">
        <ele>158</ele>
        <time>2015-05-17T11:30:04 +0200</time>
      </trkpt>
      <trkpt lat="48.77243" lon="2.17867">
        <ele>158</ele>
        <time>2015-05-17T11:30:35 +0200</time>
      </trkpt>
      <trkpt lat="48.77218" lon="2.1782">
        <ele>158</ele>
        <time>2015-05-17T11:31:06 +0200</time>
      </trkpt>
      <trkpt lat="48.77211" lon="2.17807">
        <ele>158</ele>
        <time>2015-05-17T11:31:16 +0200</time>
      </trkpt>
      <trkpt lat="48.77212" lon="2.17802">
        <ele>158</ele>
        <time>2015-05-17T11:31:22 +0200</time>
      </trkpt>
      <trkpt lat="48.77217" lon="2.17796">
        <ele>159</ele>
        <time>2015-05-17T11:31:37 +0200</time>
      </trkpt>
      <trkpt lat="48.77256" lon="2.17769">
        <ele>166</ele>
        <time>2015-05-17T11:32:10 +0200</time>
      </trkpt>
      <trkpt lat="48.77278" lon="2.17781">
        <ele>167</ele>
        <time>2015-05-17T11:32:30 +0200</time>
      </trkpt>
      <trkpt lat="48.77286" lon="2.17795">
        <ele>167</ele>
        <time>2015-05-17T11:32:41 +0200</time>
      </trkpt>
      <trkpt lat="48.77288" lon="2.178">
        <ele>166</ele>
        <time>2015-05-17T11:32:46 +0200</time>
      </trkpt>
      <trkpt lat="48.77296" lon="2.17853">
        <ele>160</ele>
        <time>2015-05-17T11:33:19 +0200</time>
      </trkpt>
      <trkpt lat="48.77336" lon="2.17857">
        <ele>162</ele>
        <time>2015-05-17T11:33:49 +0200</time>
      </trkpt>
      <trkpt lat="48.77363" lon="2.1784">
        <ele>164</ele>
        <time>2015-05-17T11:34:06 +0200</time>
      </trkpt>
      <trkpt lat="48.77381" lon="2.17795">
        <ele>164</ele>
        <time>2015-05-17T11:34:38 +0200</time>
      </trkpt>
      <trkpt lat="48.77396" lon="2.17738">
        <ele>164</ele>
        <time>2015-05-17T11:35:09 +0200</time>
      </trkpt>
      <trkpt lat="48.77421" lon="2.17696">
        <ele>167</ele>
        <time>2015-05-17T11:35:39 +0200</time>
      </trkpt>
      <trkpt lat="48.77453" lon="2.17703">
        <ele>168</ele>
        <time>2015-05-17T11:36:09 +0200</time>
      </trkpt>
      <trkpt lat="48.77462" lon="2.17701">
        <ele>167</ele>
        <time>2015-05-17T11:36:15 +0200</time>
      </trkpt>
      <trkpt lat="48.77473" lon="2.17678">
        <ele>165</ele>
        <time>2015-05-17T11:36:29 +0200</time>
      </trkpt>
      <trkpt lat="48.77477" lon="2.17662">
        <ele>166</ele>
        <time>2015-05-17T11:36:37 +0200</time>
      </trkpt>
      <trkpt lat="48.77478" lon="2.17652">
        <ele>166</ele>
        <time>2015-05-17T11:36:42 +0200</time>
      </trkpt>
      <trkpt lat="48.77477" lon="2.17639">
        <ele>167</ele>
        <time>2015-05-17T11:36:53 +0200</time>
      </trkpt>
      <trkpt lat="48.7747" lon="2.17611">
        <ele>168</ele>
        <time>2015-05-17T11:37:27 +0200</time>
      </trkpt>
      <trkpt lat="48.7747" lon="2.17605">
        <ele>168</ele>
        <time>2015-05-17T11:37:31 +0200</time>
      </trkpt>
      <trkpt lat="48.77469" lon="2.17599">
        <ele>168</ele>
        <time>2015-05-17T11:37:36 +0200</time>
      </trkpt>
      <trkpt lat="48.77469" lon="2.17592">
        <ele>168</ele>
        <time>2015-05-17T11:37:40 +0200</time>
      </trkpt>
      <trkpt lat="48.77459" lon="2.17565">
        <ele>165</ele>
        <time>2015-05-17T11:38:10 +0200</time>
      </trkpt>
      <trkpt lat="48.77456" lon="2.17561">
        <ele>165</ele>
        <time>2015-05-17T11:38:15 +0200</time>
      </trkpt>
      <trkpt lat="48.77453" lon="2.17558">
        <ele>165</ele>
        <time>2015-05-17T11:38:19 +0200</time>
      </trkpt>
      <trkpt lat="48.77447" lon="2.17544">
        <ele>162</ele>
        <time>2015-05-17T11:38:33 +0200</time>
      </trkpt>
      <trkpt lat="48.77438" lon="2.17535">
        <ele>161</ele>
        <time>2015-05-17T11:38:42 +0200</time>
      </trkpt>
      <trkpt lat="48.77434" lon="2.17533">
        <ele>160</ele>
        <time>2015-05-17T11:38:46 +0200</time>
      </trkpt>
      <trkpt lat="48.7743" lon="2.17535">
        <ele>160</ele>
        <time>2015-05-17T11:38:50 +0200</time>
      </trkpt>
      <trkpt lat="48.77414" lon="2.17533">
        <ele>156</ele>
        <time>2015-05-17T11:39:08 +0200</time>
      </trkpt>
      <trkpt lat="48.77402" lon="2.17537">
        <ele>154</ele>
        <time>2015-05-17T11:39:19 +0200</time>
      </trkpt>
      <trkpt lat="48.77395" lon="2.17535">
        <ele>153</ele>
        <time>2015-05-17T11:39:25 +0200</time>
      </trkpt>
      <trkpt lat="48.77354" lon="2.17516">
        <ele>150</ele>
        <time>2015-05-17T11:39:56 +0200</time>
      </trkpt>
      <trkpt lat="48.77334" lon="2.17508">
        <ele>150</ele>
        <time>2015-05-17T11:40:10 +0200</time>
      </trkpt>
      <trkpt lat="48.7731" lon="2.17493">
        <ele>150</ele>
        <time>2015-05-17T11:40:31 +0200</time>
      </trkpt>
      <trkpt lat="48.773" lon="2.17493">
        <ele>149</ele>
        <time>2015-05-17T11:40:39 +0200</time>
      </trkpt>
      <trkpt lat="48.77296" lon="2.17493">
        <ele>149</ele>
        <time>2015-05-17T11:40:42 +0200</time>
      </trkpt>
      <trkpt lat="48.77291" lon="2.17493">
        <ele>149</ele>
        <time>2015-05-17T11:40:45 +0200</time>
      </trkpt>
      <trkpt lat="48.77283" lon="2.17491">
        <ele>149</ele>
        <time>2015-05-17T11:40:52 +0200</time>
      </trkpt>
      <trkpt lat="48.77279" lon="2.17492">
        <ele>149</ele>
        <time>2015-05-17T11:40:56 +0200</time>
      </trkpt>
      <trkpt lat="48.77269" lon="2.17486">
        <ele>147</ele>
        <time>2015-05-17T11:41:08 +0200</time>
      </trkpt>
      <trkpt lat="48.77242" lon="2.17476">
        <ele>141</ele>
        <time>2015-05-17T11:41:39 +0200</time>
      </trkpt>
      <trkpt lat="48.77238" lon="2.17473">
        <ele>141</ele>
        <time>2015-05-17T11:41:43 +0200</time>
      </trkpt>
      <trkpt lat="48.77213" lon="2.17436">
        <ele>134</ele>
        <time>2015-05-17T11:42:19 +0200</time>
      </trkpt>
      <trkpt lat="48.77188" lon="2.17395">
        <ele>124</ele>
        <time>2015-05-17T11:42:49 +0200</time>
      </trkpt>
      <trkpt lat="48.77178" lon="2.17378">
        <ele>123</ele>
        <time>2015-05-17T11:43:02 +0200</time>
      </trkpt>
      <trkpt lat="48.77175" lon="2.17367">
        <ele>122</ele>
        <time>2015-05-17T11:43:07 +0200</time>
      </trkpt>
      <trkpt lat="48.77174" lon="2.17354">
        <ele>121</ele>
        <time>2015-05-17T11:43:16 +0200</time>
      </trkpt>
      <trkpt lat="48.77166" lon="2.17345">
        <ele>121</ele>
        <time>2015-05-17T11:44:03 +0200</time>
      </trkpt>
      <trkpt lat="48.77147" lon="2.17313">
        <ele>122</ele>
        <time>2015-05-17T11:44:33 +0200</time>
      </trkpt>
      <trkpt lat="48.77144" lon="2.17306">
        <ele>122</ele>
        <time>2015-05-17T11:44:39 +0200</time>
      </trkpt>
      <trkpt lat="48.77134" lon="2.17307">
        <ele>122</ele>
        <time>2015-05-17T11:44:52 +0200</time>
      </trkpt>
      <trkpt lat="48.77132" lon="2.17303">
        <ele>122</ele>
        <time>2015-05-17T11:44:56 +0200</time>
      </trkpt>
      <trkpt lat="48.77112" lon="2.17259">
        <ele>122</ele>
        <time>2015-05-17T11:45:29 +0200</time>
      </trkpt>
      <trkpt lat="48.77106" lon="2.17247">
        <ele>122</ele>
        <time>2015-05-17T11:45:40 +0200</time>
      </trkpt>
      <trkpt lat="48.77103" lon="2.17237">
        <ele>123</ele>
        <time>2015-05-17T11:45:50 +0200</time>
      </trkpt>
      <trkpt lat="48.7708" lon="2.17204">
        <ele>127</ele>
        <time>2015-05-17T11:46:15 +0200</time>
      </trkpt>
      <trkpt lat="48.77061" lon="2.17164">
        <ele>133</ele>
        <time>2015-05-17T11:46:45 +0200</time>
      </trkpt>
      <trkpt lat="48.77055" lon="2.17156">
        <ele>134</ele>
        <time>2015-05-17T11:46:52 +0200</time>
      </trkpt>
      <trkpt lat="48.7705" lon="2.1714">
        <ele>134</ele>
        <time>2015-05-17T11:47:02 +0200</time>
      </trkpt>
      <trkpt lat="48.77042" lon="2.1713">
        <ele>135</ele>
        <time>2015-05-17T11:47:11 +0200</time>
      </trkpt>
      <trkpt lat="48.77017" lon="2.17093">
        <ele>139</ele>
        <time>2015-05-17T11:47:43 +0200</time>
      </trkpt>
      <trkpt lat="48.77012" lon="2.17081">
        <ele>139</ele>
        <time>2015-05-17T11:47:51 +0200</time>
      </trkpt>
      <trkpt lat="48.76984" lon="2.1705">
        <ele>140</ele>
        <time>2015-05-17T11:48:24 +0200</time>
      </trkpt>
      <trkpt lat="48.76954" lon="2.17016">
        <ele>142</ele>
        <time>2015-05-17T11:48:56 +0200</time>
      </trkpt>
      <trkpt lat="48.76945" lon="2.17008">
        <ele>143</ele>
        <time>2015-05-17T11:49:08 +0200</time>
      </trkpt>
      <trkpt lat="48.76938" lon="2.17005">
        <ele>143</ele>
        <time>2015-05-17T11:49:14 +0200</time>
      </trkpt>
      <trkpt lat="48.76933" lon="2.17">
        <ele>143</ele>
        <time>2015-05-17T11:49:20 +0200</time>
      </trkpt>
      <trkpt lat="48.76923" lon="2.16988">
        <ele>143</ele>
        <time>2015-05-17T11:49:29 +0200</time>
      </trkpt>
      <trkpt lat="48.76898" lon="2.16968">
        <ele>143</ele>
        <time>2015-05-17T11:49:50 +0200</time>
      </trkpt>
      <trkpt lat="48.76874" lon="2.16918">
        <ele>144</ele>
        <time>2015-05-17T11:50:21 +0200</time>
      </trkpt>
      <trkpt lat="48.76867" lon="2.16877">
        <ele>147</ele>
        <time>2015-05-17T11:50:48 +0200</time>
      </trkpt>
      <trkpt lat="48.76869" lon="2.16869">
        <ele>147</ele>
        <time>2015-05-17T11:51:09 +0200</time>
      </trkpt>
      <trkpt lat="48.76868" lon="2.16861">
        <ele>148</ele>
        <time>2015-05-17T11:51:13 +0200</time>
      </trkpt>
      <trkpt lat="48.76863" lon="2.16844">
        <ele>149</ele>
        <time>2015-05-17T11:51:27 +0200</time>
      </trkpt>
      <trkpt lat="48.76867" lon="2.16796">
        <ele>150</ele>
        <time>2015-05-17T11:51:55 +0200</time>
      </trkpt>
      <trkpt lat="48.76882" lon="2.16738">
        <ele>149</ele>
        <time>2015-05-17T11:52:31 +0200</time>
      </trkpt>
      <trkpt lat="48.76888" lon="2.16687">
        <ele>150</ele>
        <time>2015-05-17T11:53:03 +0200</time>
      </trkpt>
      <trkpt lat="48.7689" lon="2.16682">
        <ele>150</ele>
        <time>2015-05-17T11:53:06 +0200</time>
      </trkpt>
      <trkpt lat="48.7689" lon="2.16676">
        <ele>151</ele>
        <time>2015-05-17T11:53:13 +0200</time>
      </trkpt>
      <trkpt lat="48.76885" lon="2.16621">
        <ele>151</ele>
        <time>2015-05-17T11:53:44 +0200</time>
      </trkpt>
      <trkpt lat="48.76868" lon="2.16554">
        <ele>153</ele>
        <time>2015-05-17T11:54:19 +0200</time>
      </trkpt>
      <trkpt lat="48.76846" lon="2.16487">
        <ele>150</ele>
        <time>2015-05-17T11:54:51 +0200</time>
      </trkpt>
      <trkpt lat="48.76836" lon="2.16432">
        <ele>149</ele>
        <time>2015-05-17T11:55:22 +0200</time>
      </trkpt>
      <trkpt lat="48.76837" lon="2.16404">
        <ele>148</ele>
        <time>2015-05-17T11:55:49 +0200</time>
      </trkpt>
      <trkpt lat="48.7684" lon="2.16389">
        <ele>147</ele>
        <time>2015-05-17T11:55:58 +0200</time>
      </trkpt>
      <trkpt lat="48.7686" lon="2.16334">
        <ele>146</ele>
        <time>2015-05-17T11:56:29 +0200</time>
      </trkpt>
      <trkpt lat="48.76866" lon="2.16282">
        <ele>145</ele>
        <time>2015-05-17T11:56:59 +0200</time>
      </trkpt>
      <trkpt lat="48.76866" lon="2.16276">
        <ele>144</ele>
        <time>2015-05-17T11:57:02 +0200</time>
      </trkpt>
      <trkpt lat="48.76862" lon="2.16262">
        <ele>143</ele>
        <time>2015-05-17T11:57:13 +0200</time>
      </trkpt>
      <trkpt lat="48.76859" lon="2.16251">
        <ele>142</ele>
        <time>2015-05-17T11:57:19 +0200</time>
      </trkpt>
      <trkpt lat="48.76852" lon="2.1621">
        <ele>139</ele>
        <time>2015-05-17T11:57:49 +0200</time>
      </trkpt>
      <trkpt lat="48.76843" lon="2.16183">
        <ele>137</ele>
        <time>2015-05-17T11:58:06 +0200</time>
      </trkpt>
      <trkpt lat="48.7684" lon="2.16156">
        <ele>135</ele>
        <time>2015-05-17T11:58:25 +0200</time>
      </trkpt>
      <trkpt lat="48.76835" lon="2.16145">
        <ele>133</ele>
        <time>2015-05-17T11:58:31 +0200</time>
      </trkpt>
      <trkpt lat="48.76832" lon="2.1611">
        <ele>130</ele>
        <time>2015-05-17T11:58:50 +0200</time>
      </trkpt>
      <trkpt lat="48.76835" lon="2.16099">
        <ele>129</ele>
        <time>2015-05-17T11:58:57 +0200</time>
      </trkpt>
      <trkpt lat="48.76839" lon="2.16088">
        <ele>129</ele>
        <time>2015-05-17T11:59:04 +0200</time>
      </trkpt>
      <trkpt lat="48.76832" lon="2.16045">
        <ele>128</ele>
        <time>2015-05-17T11:59:23 +0200</time>
      </trkpt>
      <trkpt lat="48.76833" lon="2.16019">
        <ele>130</ele>
        <time>2015-05-17T11:59:37 +0200</time>
      </trkpt>
      <trkpt lat="48.76836" lon="2.16006">
        <ele>131</ele>
        <time>2015-05-17T11:59:44 +0200</time>
      </trkpt>
      <trkpt lat="48.76848" lon="2.15995">
        <ele>134</ele>
        <time>2015-05-17T11:59:56 +0200</time>
      </trkpt>
      <trkpt lat="48.76864" lon="2.16003">
        <ele>135</ele>
        <time>2015-05-17T12:00:17 +0200</time>
      </trkpt>
      <trkpt lat="48.76874" lon="2.16007">
        <ele>136</ele>
        <time>2015-05-17T12:00:58 +0200</time>
      </trkpt>
      <trkpt lat="48.76902" lon="2.16007">
        <ele>135</ele>
        <time>2015-05-17T12:01:29 +0200</time>
      </trkpt>
      <trkpt lat="48.76938" lon="2.16008">
        <ele>137</ele>
        <time>2015-05-17T12:02:00 +0200</time>
      </trkpt>
      <trkpt lat="48.76952" lon="2.16014">
        <ele>138</ele>
        <time>2015-05-17T12:02:10 +0200</time>
      </trkpt>
      <trkpt lat="48.76989" lon="2.16011">
        <ele>141</ele>
        <time>2015-05-17T12:02:41 +0200</time>
      </trkpt>
      <trkpt lat="48.76993" lon="2.16011">
        <ele>141</ele>
        <time>2015-05-17T12:02:44 +0200</time>
      </trkpt>
      <trkpt lat="48.77035" lon="2.16016">
        <ele>142</ele>
        <time>2015-05-17T12:03:17 +0200</time>
      </trkpt>
      <trkpt lat="48.77056" lon="2.16019">
        <ele>146</ele>
        <time>2015-05-17T12:03:38 +0200</time>
      </trkpt>
      <trkpt lat="48.77084" lon="2.1602">
        <ele>151</ele>
        <time>2015-05-17T12:04:01 +0200</time>
      </trkpt>
      <trkpt lat="48.77089" lon="2.16012">
        <ele>151</ele>
        <time>2015-05-17T12:04:06 +0200</time>
      </trkpt>
      <trkpt lat="48.77093" lon="2.16003">
        <ele>153</ele>
        <time>2015-05-17T12:04:13 +0200</time>
      </trkpt>
      <trkpt lat="48.77092" lon="2.15993">
        <ele>154</ele>
        <time>2015-05-17T12:04:18 +0200</time>
      </trkpt>
      <trkpt lat="48.7709" lon="2.15985">
        <ele>154</ele>
        <time>2015-05-17T12:04:23 +0200</time>
      </trkpt>
      <trkpt lat="48.77088" lon="2.15977">
        <ele>155</ele>
        <time>2015-05-17T12:04:27 +0200</time>
      </trkpt>
      <trkpt lat="48.77086" lon="2.15968">
        <ele>155</ele>
        <time>2015-05-17T12:04:32 +0200</time>
      </trkpt>
      <trkpt lat="48.77086" lon="2.15953">
        <ele>154</ele>
        <time>2015-05-17T12:04:40 +0200</time>
      </trkpt>
      <trkpt lat="48.77087" lon="2.15947">
        <ele>154</ele>
        <time>2015-05-17T12:04:44 +0200</time>
      </trkpt>
      <trkpt lat="48.7709" lon="2.15932">
        <ele>154</ele>
        <time>2015-05-17T12:04:56 +0200</time>
      </trkpt>
      <trkpt lat="48.77089" lon="2.15879">
        <ele>155</ele>
        <time>2015-05-17T12:05:27 +0200</time>
      </trkpt>
      <trkpt lat="48.77096" lon="2.15837">
        <ele>158</ele>
        <time>2015-05-17T12:05:58 +0200</time>
      </trkpt>
      <trkpt lat="48.77095" lon="2.15774">
        <ele>157</ele>
        <time>2015-05-17T12:06:31 +0200</time>
      </trkpt>
      <trkpt lat="48.77093" lon="2.15767">
        <ele>157</ele>
        <time>2015-05-17T12:06:36 +0200</time>
      </trkpt>
      <trkpt lat="48.77093" lon="2.15747">
        <ele>158</ele>
        <time>2015-05-17T12:06:47 +0200</time>
      </trkpt>
      <trkpt lat="48.77102" lon="2.15681">
        <ele>158</ele>
        <time>2015-05-17T12:07:19 +0200</time>
      </trkpt>
      <trkpt lat="48.77106" lon="2.15622">
        <ele>156</ele>
        <time>2015-05-17T12:07:53 +0200</time>
      </trkpt>
      <trkpt lat="48.77109" lon="2.15558">
        <ele>152</ele>
        <time>2015-05-17T12:08:25 +0200</time>
      </trkpt>
      <trkpt lat="48.77095" lon="2.15486">
        <ele>157</ele>
        <time>2015-05-17T12:08:56 +0200</time>
      </trkpt>
      <trkpt lat="48.77097" lon="2.15422">
        <ele>164</ele>
        <time>2015-05-17T12:09:28 +0200</time>
      </trkpt>
      <trkpt lat="48.77097" lon="2.15359">
        <ele>167</ele>
        <time>2015-05-17T12:10:01 +0200</time>
      </trkpt>
      <trkpt lat="48.77106" lon="2.15305">
        <ele>165</ele>
        <time>2015-05-17T12:10:31 +0200</time>
      </trkpt>
      <trkpt lat="48.77103" lon="2.15255">
        <ele>160</ele>
        <time>2015-05-17T12:11:03 +0200</time>
      </trkpt>
      <trkpt lat="48.77075" lon="2.15227">
        <ele>154</ele>
        <time>2015-05-17T12:11:38 +0200</time>
      </trkpt>
      <trkpt lat="48.77043" lon="2.15196">
        <ele>145</ele>
        <time>2015-05-17T12:12:15 +0200</time>
      </trkpt>
      <trkpt lat="48.77015" lon="2.15155">
        <ele>138</ele>
        <time>2015-05-17T12:12:47 +0200</time>
      </trkpt>
      <trkpt lat="48.77008" lon="2.15114">
        <ele>136</ele>
        <time>2015-05-17T12:13:09 +0200</time>
      </trkpt>
      <trkpt lat="48.77006" lon="2.15044">
        <ele>131</ele>
        <time>2015-05-17T12:13:44 +0200</time>
      </trkpt>
      <trkpt lat="48.77008" lon="2.15005">
        <ele>130</ele>
        <time>2015-05-17T12:14:05 +0200</time>
      </trkpt>
      <trkpt lat="48.77015" lon="2.14955">
        <ele>134</ele>
        <time>2015-05-17T12:14:35 +0200</time>
      </trkpt>
      <trkpt lat="48.77033" lon="2.1491">
        <ele>136</ele>
        <time>2015-05-17T12:15:06 +0200</time>
      </trkpt>
      <trkpt lat="48.77035" lon="2.14903">
        <ele>135</ele>
        <time>2015-05-17T12:15:11 +0200</time>
      </trkpt>
      <trkpt lat="48.77038" lon="2.14899">
        <ele>135</ele>
        <time>2015-05-17T12:15:15 +0200</time>
      </trkpt>
      <trkpt lat="48.77041" lon="2.14896">
        <ele>135</ele>
        <time>2015-05-17T12:15:20 +0200</time>
      </trkpt>
      <trkpt lat="48.77059" lon="2.14863">
        <ele>132</ele>
        <time>2015-05-17T12:15:50 +0200</time>
      </trkpt>
      <trkpt lat="48.77079" lon="2.14821">
        <ele>126</ele>
        <time>2015-05-17T12:16:24 +0200</time>
      </trkpt>
      <trkpt lat="48.77102" lon="2.14785">
        <ele>120</ele>
        <time>2015-05-17T12:16:54 +0200</time>
      </trkpt>
      <trkpt lat="48.77133" lon="2.14775">
        <ele>117</ele>
        <time>2015-05-17T12:17:33 +0200</time>
      </trkpt>
      <trkpt lat="48.77151" lon="2.14773">
        <ele>112</ele>
        <time>2015-05-17T12:17:52 +0200</time>
      </trkpt>
      <trkpt lat="48.77153" lon="2.14766">
        <ele>110</ele>
        <time>2015-05-17T12:18:02 +0200</time>
      </trkpt>
      <trkpt lat="48.77144" lon="2.14758">
        <ele>109</ele>
        <time>2015-05-17T12:18:15 +0200</time>
      </trkpt>
      <trkpt lat="48.77139" lon="2.14758">
        <ele>109</ele>
        <time>2015-05-17T12:18:20 +0200</time>
      </trkpt>
      <trkpt lat="48.77122" lon="2.14743">
        <ele>107</ele>
        <time>2015-05-17T12:18:40 +0200</time>
      </trkpt>
      <trkpt lat="48.77122" lon="2.14738">
        <ele>107</ele>
        <time>2015-05-17T12:19:07 +0200</time>
      </trkpt>
      <trkpt lat="48.77116" lon="2.14732">
        <ele>107</ele>
        <time>2015-05-17T12:19:14 +0200</time>
      </trkpt>
      <trkpt lat="48.77094" lon="2.14713">
        <ele>106</ele>
        <time>2015-05-17T12:19:41 +0200</time>
      </trkpt>
      <trkpt lat="48.7709" lon="2.14702">
        <ele>106</ele>
        <time>2015-05-17T12:19:57 +0200</time>
      </trkpt>
      <trkpt lat="48.77085" lon="2.14698">
        <ele>106</ele>
        <time>2015-05-17T12:20:03 +0200</time>
      </trkpt>
      <trkpt lat="48.77062" lon="2.14643">
        <ele>101</ele>
        <time>2015-05-17T12:20:38 +0200</time>
      </trkpt>
      <trkpt lat="48.7703" lon="2.14597">
        <ele>98</ele>
        <time>2015-05-17T12:21:09 +0200</time>
      </trkpt>
      <trkpt lat="48.77012" lon="2.14562">
        <ele>98</ele>
        <time>2015-05-17T12:21:32 +0200</time>
      </trkpt>
      <trkpt lat="48.77014" lon="2.14551">
        <ele>98</ele>
        <time>2015-05-17T12:21:39 +0200</time>
      </trkpt>
      <trkpt lat="48.7701" lon="2.14539">
        <ele>98</ele>
        <time>2015-05-17T12:21:46 +0200</time>
      </trkpt>
      <trkpt lat="48.76972" lon="2.14508">
        <ele>98</ele>
        <time>2015-05-17T12:22:19 +0200</time>
      </trkpt>
      <trkpt lat="48.76952" lon="2.14483">
        <ele>96</ele>
        <time>2015-05-17T12:22:49 +0200</time>
      </trkpt>
      <trkpt lat="48.76919" lon="2.14444">
        <ele>93</ele>
        <time>2015-05-17T12:23:22 +0200</time>
      </trkpt>
      <trkpt lat="48.76905" lon="2.14436">
        <ele>93</ele>
        <time>2015-05-17T12:23:41 +0200</time>
      </trkpt>
      <trkpt lat="48.76895" lon="2.14439">
        <ele>94</ele>
        <time>2015-05-17T12:23:51 +0200</time>
      </trkpt>
      <trkpt lat="48.76888" lon="2.1444">
        <ele>94</ele>
        <time>2015-05-17T12:23:58 +0200</time>
      </trkpt>
      <trkpt lat="48.76882" lon="2.14447">
        <ele>94</ele>
        <time>2015-05-17T12:24:05 +0200</time>
      </trkpt>
      <trkpt lat="48.76862" lon="2.14453">
        <ele>96</ele>
        <time>2015-05-17T12:24:14 +0200</time>
      </trkpt>
      <trkpt lat="48.76856" lon="2.14454">
        <ele>97</ele>
        <time>2015-05-17T12:24:17 +0200</time>
      </trkpt>
      <trkpt lat="48.76843" lon="2.14468">
        <ele>98</ele>
        <time>2015-05-17T12:24:28 +0200</time>
      </trkpt>
      <trkpt lat="48.7684" lon="2.14472">
        <ele>99</ele>
        <time>2015-05-17T12:24:32 +0200</time>
      </trkpt>
      <trkpt lat="48.76826" lon="2.14516">
        <ele>104</ele>
        <time>2015-05-17T12:25:04 +0200</time>
      </trkpt>
      <trkpt lat="48.7681" lon="2.14568">
        <ele>98</ele>
        <time>2015-05-17T12:25:36 +0200</time>
      </trkpt>
      <trkpt lat="48.7681" lon="2.14574">
        <ele>97</ele>
        <time>2015-05-17T12:25:39 +0200</time>
      </trkpt>
      <trkpt lat="48.76791" lon="2.14616">
        <ele>92</ele>
        <time>2015-05-17T12:26:14 +0200</time>
      </trkpt>
      <trkpt lat="48.76786" lon="2.14615">
        <ele>91</ele>
        <time>2015-05-17T12:26:20 +0200</time>
      </trkpt>
      <trkpt lat="48.76781" lon="2.14609">
        <ele>89</ele>
        <time>2015-05-17T12:26:28 +0200</time>
      </trkpt>
      <trkpt lat="48.76767" lon="2.14607">
        <ele>89</ele>
        <time>2015-05-17T12:26:45 +0200</time>
      </trkpt>
      <trkpt lat="48.76761" lon="2.14605">
        <ele>92</ele>
        <time>2015-05-17T12:26:51 +0200</time>
      </trkpt>
      <trkpt lat="48.76745" lon="2.14589">
        <ele>96</ele>
        <time>2015-05-17T12:27:08 +0200</time>
      </trkpt>
      <trkpt lat="48.76741" lon="2.14578">
        <ele>97</ele>
        <time>2015-05-17T12:27:18 +0200</time>
      </trkpt>
      <trkpt lat="48.76736" lon="2.14578">
        <ele>100</ele>
        <time>2015-05-17T12:27:27 +0200</time>
      </trkpt>
      <trkpt lat="48.76731" lon="2.14571">
        <ele>101</ele>
        <time>2015-05-17T12:27:31 +0200</time>
      </trkpt>
      <trkpt lat="48.76716" lon="2.14558">
        <ele>103</ele>
        <time>2015-05-17T12:27:47 +0200</time>
      </trkpt>
      <trkpt lat="48.76713" lon="2.14551">
        <ele>104</ele>
        <time>2015-05-17T12:27:55 +0200</time>
      </trkpt>
      <trkpt lat="48.76707" lon="2.14548">
        <ele>106</ele>
        <time>2015-05-17T12:28:00 +0200</time>
      </trkpt>
      <trkpt lat="48.76678" lon="2.14518">
        <ele>110</ele>
        <time>2015-05-17T12:28:34 +0200</time>
      </trkpt>
      <trkpt lat="48.76671" lon="2.14518">
        <ele>110</ele>
        <time>2015-05-17T12:28:40 +0200</time>
      </trkpt>
      <trkpt lat="48.76664" lon="2.14512">
        <ele>111</ele>
        <time>2015-05-17T12:28:50 +0200</time>
      </trkpt>
      <trkpt lat="48.76662" lon="2.14506">
        <ele>111</ele>
        <time>2015-05-17T12:28:55 +0200</time>
      </trkpt>
      <trkpt lat="48.76659" lon="2.14502">
        <ele>111</ele>
        <time>2015-05-17T12:29:02 +0200</time>
      </trkpt>
      <trkpt lat="48.76645" lon="2.14496">
        <ele>113</ele>
        <time>2015-05-17T12:29:17 +0200</time>
      </trkpt>
      <trkpt lat="48.76642" lon="2.1449">
        <ele>113</ele>
        <time>2015-05-17T12:29:23 +0200</time>
      </trkpt>
      <trkpt lat="48.76639" lon="2.14485">
        <ele>114</ele>
        <time>2015-05-17T12:29:29 +0200</time>
      </trkpt>
      <trkpt lat="48.76635" lon="2.14479">
        <ele>114</ele>
        <time>2015-05-17T12:29:35 +0200</time>
      </trkpt>
      <trkpt lat="48.76632" lon="2.14476">
        <ele>115</ele>
        <time>2015-05-17T12:29:38 +0200</time>
      </trkpt>
      <trkpt lat="48.7663" lon="2.14466">
        <ele>116</ele>
        <time>2015-05-17T12:29:47 +0200</time>
      </trkpt>
      <trkpt lat="48.76628" lon="2.14454">
        <ele>120</ele>
        <time>2015-05-17T12:30:08 +0200</time>
      </trkpt>
      <trkpt lat="48.76619" lon="2.1445">
        <ele>122</ele>
        <time>2015-05-17T12:30:21 +0200</time>
      </trkpt>
      <trkpt lat="48.76616" lon="2.14447">
        <ele>126</ele>
        <time>2015-05-17T12:30:27 +0200</time>
      </trkpt>
      <trkpt lat="48.7661" lon="2.14444">
        <ele>128</ele>
        <time>2015-05-17T12:30:38 +0200</time>
      </trkpt>
      <trkpt lat="48.76606" lon="2.14441">
        <ele>129</ele>
        <time>2015-05-17T12:30:42 +0200</time>
      </trkpt>
      <trkpt lat="48.76581" lon="2.14434">
        <ele>137</ele>
        <time>2015-05-17T12:31:24 +0200</time>
      </trkpt>
      <trkpt lat="48.7658" lon="2.14427">
        <ele>137</ele>
        <time>2015-05-17T12:31:37 +0200</time>
      </trkpt>
      <trkpt lat="48.76572" lon="2.14428">
        <ele>138</ele>
        <time>2015-05-17T12:31:56 +0200</time>
      </trkpt>
      <trkpt lat="48.76562" lon="2.14424">
        <ele>139</ele>
        <time>2015-05-17T12:32:09 +0200</time>
      </trkpt>
      <trkpt lat="48.76558" lon="2.14424">
        <ele>145</ele>
        <time>2015-05-17T12:32:14 +0200</time>
      </trkpt>
      <trkpt lat="48.76551" lon="2.14419">
        <ele>146</ele>
        <time>2015-05-17T12:32:22 +0200</time>
      </trkpt>
      <trkpt lat="48.76546" lon="2.14419">
        <ele>148</ele>
        <time>2015-05-17T12:32:35 +0200</time>
      </trkpt>
      <trkpt lat="48.76539" lon="2.14417">
        <ele>149</ele>
        <time>2015-05-17T12:32:37 +0200</time>
      </trkpt>
      <trkpt lat="48.76535" lon="2.14414">
        <ele>149</ele>
        <time>2015-05-17T12:32:40 +0200</time>
      </trkpt>
      <trkpt lat="48.76532" lon="2.14412">
        <ele>149</ele>
        <time>2015-05-17T12:32:44 +0200</time>
      </trkpt>
      <trkpt lat="48.76529" lon="2.14411">
        <ele>149</ele>
        <time>2015-05-17T12:32:52 +0200</time>
      </trkpt>
      <trkpt lat="48.7653" lon="2.14397">
        <ele>134</ele>
        <time>2015-05-17T13:13:08 +0200</time>
      </trkpt>
      <trkpt lat="48.7653" lon="2.14397">
        <ele>134</ele>
        <time>2015-05-17T13:13:09 +0200</time>
      </trkpt>
      <trkpt lat="48.76524" lon="2.1439">
        <ele>139</ele>
        <time>2015-05-17T13:13:31 +0200</time>
      </trkpt>
      <trkpt lat="48.76517" lon="2.14397">
        <ele>143</ele>
        <time>2015-05-17T13:13:50 +0200</time>
      </trkpt>
      <trkpt lat="48.76512" lon="2.14395">
        <ele>145</ele>
        <time>2015-05-17T13:14:06 +0200</time>
      </trkpt>
      <trkpt lat="48.765" lon="2.144">
        <ele>144</ele>
        <time>2015-05-17T13:14:16 +0200</time>
      </trkpt>
      <trkpt lat="48.76497" lon="2.14403">
        <ele>144</ele>
        <time>2015-05-17T13:14:20 +0200</time>
      </trkpt>
      <trkpt lat="48.76491" lon="2.14412">
        <ele>144</ele>
        <time>2015-05-17T13:14:29 +0200</time>
      </trkpt>
      <trkpt lat="48.76487" lon="2.14414">
        <ele>143</ele>
        <time>2015-05-17T13:14:33 +0200</time>
      </trkpt>
      <trkpt lat="48.76458" lon="2.14403">
        <ele>142</ele>
        <time>2015-05-17T13:15:04 +0200</time>
      </trkpt>
      <trkpt lat="48.76455" lon="2.144">
        <ele>142</ele>
        <time>2015-05-17T13:15:08 +0200</time>
      </trkpt>
      <trkpt lat="48.76451" lon="2.14392">
        <ele>141</ele>
        <time>2015-05-17T13:15:16 +0200</time>
      </trkpt>
      <trkpt lat="48.76443" lon="2.14339">
        <ele>141</ele>
        <time>2015-05-17T13:15:49 +0200</time>
      </trkpt>
      <trkpt lat="48.76443" lon="2.14335">
        <ele>141</ele>
        <time>2015-05-17T13:15:51 +0200</time>
      </trkpt>
      <trkpt lat="48.76444" lon="2.14321">
        <ele>141</ele>
        <time>2015-05-17T13:15:59 +0200</time>
      </trkpt>
      <trkpt lat="48.76451" lon="2.14284">
        <ele>145</ele>
        <time>2015-05-17T13:19:18 +0200</time>
      </trkpt>
      <trkpt lat="48.76447" lon="2.14287">
        <ele>146</ele>
        <time>2015-05-17T13:19:21 +0200</time>
      </trkpt>
      <trkpt lat="48.7644" lon="2.14289">
        <ele>146</ele>
        <time>2015-05-17T13:19:24 +0200</time>
      </trkpt>
      <trkpt lat="48.76398" lon="2.143">
        <ele>148</ele>
        <time>2015-05-17T13:19:56 +0200</time>
      </trkpt>
      <trkpt lat="48.7636" lon="2.14297">
        <ele>148</ele>
        <time>2015-05-17T13:20:27 +0200</time>
      </trkpt>
      <trkpt lat="48.76325" lon="2.1429">
        <ele>152</ele>
        <time>2015-05-17T13:20:59 +0200</time>
      </trkpt>
      <trkpt lat="48.76289" lon="2.14289">
        <ele>151</ele>
        <time>2015-05-17T13:21:30 +0200</time>
      </trkpt>
      <trkpt lat="48.76255" lon="2.14285">
        <ele>150</ele>
        <time>2015-05-17T13:22:01 +0200</time>
      </trkpt>
      <trkpt lat="48.76235" lon="2.14285">
        <ele>150</ele>
        <time>2015-05-17T13:22:18 +0200</time>
      </trkpt>
      <trkpt lat="48.76205" lon="2.14279">
        <ele>150</ele>
        <time>2015-05-17T13:22:46 +0200</time>
      </trkpt>
      <trkpt lat="48.76203" lon="2.14281">
        <ele>150</ele>
        <time>2015-05-17T13:22:50 +0200</time>
      </trkpt>
      <trkpt lat="48.76198" lon="2.1428">
        <ele>150</ele>
        <time>2015-05-17T13:22:53 +0200</time>
      </trkpt>
      <trkpt lat="48.76185" lon="2.14283">
        <ele>151</ele>
        <time>2015-05-17T13:23:05 +0200</time>
      </trkpt>
      <trkpt lat="48.76182" lon="2.14287">
        <ele>151</ele>
        <time>2015-05-17T13:23:08 +0200</time>
      </trkpt>
      <trkpt lat="48.76172" lon="2.14287">
        <ele>152</ele>
        <time>2015-05-17T13:23:16 +0200</time>
      </trkpt>
      <trkpt lat="48.76168" lon="2.14285">
        <ele>152</ele>
        <time>2015-05-17T13:23:22 +0200</time>
      </trkpt>
      <trkpt lat="48.76165" lon="2.14282">
        <ele>152</ele>
        <time>2015-05-17T13:23:31 +0200</time>
      </trkpt>
      <trkpt lat="48.76125" lon="2.14291">
        <ele>150</ele>
        <time>2015-05-17T13:24:02 +0200</time>
      </trkpt>
      <trkpt lat="48.76078" lon="2.14295">
        <ele>149</ele>
        <time>2015-05-17T13:24:35 +0200</time>
      </trkpt>
      <trkpt lat="48.76036" lon="2.14299">
        <ele>149</ele>
        <time>2015-05-17T13:25:08 +0200</time>
      </trkpt>
      <trkpt lat="48.75999" lon="2.14304">
        <ele>149</ele>
        <time>2015-05-17T13:25:38 +0200</time>
      </trkpt>
      <trkpt lat="48.75962" lon="2.1431">
        <ele>149</ele>
        <time>2015-05-17T13:26:09 +0200</time>
      </trkpt>
      <trkpt lat="48.75949" lon="2.14315">
        <ele>149</ele>
        <time>2015-05-17T13:26:24 +0200</time>
      </trkpt>
      <trkpt lat="48.75938" lon="2.14311">
        <ele>149</ele>
        <time>2015-05-17T13:26:38 +0200</time>
      </trkpt>
      <trkpt lat="48.7593" lon="2.143">
        <ele>149</ele>
        <time>2015-05-17T13:26:43 +0200</time>
      </trkpt>
      <trkpt lat="48.75925" lon="2.14282">
        <ele>149</ele>
        <time>2015-05-17T13:26:52 +0200</time>
      </trkpt>
      <trkpt lat="48.75923" lon="2.14226">
        <ele>147</ele>
        <time>2015-05-17T13:27:22 +0200</time>
      </trkpt>
      <trkpt lat="48.7592" lon="2.14172">
        <ele>148</ele>
        <time>2015-05-17T13:27:53 +0200</time>
      </trkpt>
      <trkpt lat="48.75919" lon="2.14118">
        <ele>147</ele>
        <time>2015-05-17T13:28:23 +0200</time>
      </trkpt>
      <trkpt lat="48.75913" lon="2.14067">
        <ele>149</ele>
        <time>2015-05-17T13:28:56 +0200</time>
      </trkpt>
      <trkpt lat="48.75892" lon="2.14008">
        <ele>151</ele>
        <time>2015-05-17T13:29:27 +0200</time>
      </trkpt>
      <trkpt lat="48.75875" lon="2.1396">
        <ele>155</ele>
        <time>2015-05-17T13:29:59 +0200</time>
      </trkpt>
      <trkpt lat="48.75854" lon="2.1391">
        <ele>154</ele>
        <time>2015-05-17T13:30:32 +0200</time>
      </trkpt>
      <trkpt lat="48.75836" lon="2.13861">
        <ele>153</ele>
        <time>2015-05-17T13:31:04 +0200</time>
      </trkpt>
      <trkpt lat="48.75814" lon="2.13814">
        <ele>152</ele>
        <time>2015-05-17T13:31:35 +0200</time>
      </trkpt>
      <trkpt lat="48.75794" lon="2.13758">
        <ele>153</ele>
        <time>2015-05-17T13:32:08 +0200</time>
      </trkpt>
      <trkpt lat="48.75774" lon="2.13711">
        <ele>156</ele>
        <time>2015-05-17T13:32:38 +0200</time>
      </trkpt>
      <trkpt lat="48.75771" lon="2.137">
        <ele>156</ele>
        <time>2015-05-17T13:32:45 +0200</time>
      </trkpt>
      <trkpt lat="48.75766" lon="2.13698">
        <ele>157</ele>
        <time>2015-05-17T13:32:56 +0200</time>
      </trkpt>
      <trkpt lat="48.75749" lon="2.13706">
        <ele>157</ele>
        <time>2015-05-17T13:33:11 +0200</time>
      </trkpt>
      <trkpt lat="48.75746" lon="2.13709">
        <ele>157</ele>
        <time>2015-05-17T13:33:15 +0200</time>
      </trkpt>
      <trkpt lat="48.75743" lon="2.13709">
        <ele>156</ele>
        <time>2015-05-17T13:33:19 +0200</time>
      </trkpt>
      <trkpt lat="48.75735" lon="2.13715">
        <ele>154</ele>
        <time>2015-05-17T13:33:31 +0200</time>
      </trkpt>
      <trkpt lat="48.75701" lon="2.13721">
        <ele>154</ele>
        <time>2015-05-17T13:34:02 +0200</time>
      </trkpt>
      <trkpt lat="48.75693" lon="2.13719">
        <ele>153</ele>
        <time>2015-05-17T13:34:05 +0200</time>
      </trkpt>
      <trkpt lat="48.75683" lon="2.13716">
        <ele>153</ele>
        <time>2015-05-17T13:34:11 +0200</time>
      </trkpt>
      <trkpt lat="48.75644" lon="2.13716">
        <ele>149</ele>
        <time>2015-05-17T13:34:47 +0200</time>
      </trkpt>
      <trkpt lat="48.75608" lon="2.13721">
        <ele>152</ele>
        <time>2015-05-17T13:35:17 +0200</time>
      </trkpt>
      <trkpt lat="48.7556" lon="2.13717">
        <ele>152</ele>
        <time>2015-05-17T13:35:50 +0200</time>
      </trkpt>
      <trkpt lat="48.75552" lon="2.13714">
        <ele>153</ele>
        <time>2015-05-17T13:35:58 +0200</time>
      </trkpt>
      <trkpt lat="48.75533" lon="2.13661">
        <ele>152</ele>
        <time>2015-05-17T13:36:29 +0200</time>
      </trkpt>
      <trkpt lat="48.7553" lon="2.13656">
        <ele>151</ele>
        <time>2015-05-17T13:36:32 +0200</time>
      </trkpt>
      <trkpt lat="48.75527" lon="2.1364">
        <ele>151</ele>
        <time>2015-05-17T13:36:40 +0200</time>
      </trkpt>
      <trkpt lat="48.75527" lon="2.13636">
        <ele>151</ele>
        <time>2015-05-17T13:36:43 +0200</time>
      </trkpt>
      <trkpt lat="48.75521" lon="2.13619">
        <ele>151</ele>
        <time>2015-05-17T13:36:55 +0200</time>
      </trkpt>
      <trkpt lat="48.75518" lon="2.13607">
        <ele>150</ele>
        <time>2015-05-17T13:37:02 +0200</time>
      </trkpt>
      <trkpt lat="48.75514" lon="2.13561">
        <ele>148</ele>
        <time>2015-05-17T13:37:32 +0200</time>
      </trkpt>
      <trkpt lat="48.75519" lon="2.13549">
        <ele>148</ele>
        <time>2015-05-17T13:37:41 +0200</time>
      </trkpt>
      <trkpt lat="48.75519" lon="2.13543">
        <ele>147</ele>
        <time>2015-05-17T13:37:45 +0200</time>
      </trkpt>
      <trkpt lat="48.75518" lon="2.13479">
        <ele>145</ele>
        <time>2015-05-17T13:38:15 +0200</time>
      </trkpt>
      <trkpt lat="48.75516" lon="2.13408">
        <ele>145</ele>
        <time>2015-05-17T13:38:48 +0200</time>
      </trkpt>
      <trkpt lat="48.75514" lon="2.13356">
        <ele>145</ele>
        <time>2015-05-17T13:39:20 +0200</time>
      </trkpt>
      <trkpt lat="48.75508" lon="2.13299">
        <ele>143</ele>
        <time>2015-05-17T13:39:51 +0200</time>
      </trkpt>
      <trkpt lat="48.75504" lon="2.13252">
        <ele>143</ele>
        <time>2015-05-17T13:40:18 +0200</time>
      </trkpt>
      <trkpt lat="48.75501" lon="2.13244">
        <ele>144</ele>
        <time>2015-05-17T13:40:25 +0200</time>
      </trkpt>
      <trkpt lat="48.75498" lon="2.13241">
        <ele>145</ele>
        <time>2015-05-17T13:40:31 +0200</time>
      </trkpt>
      <trkpt lat="48.75495" lon="2.13242">
        <ele>145</ele>
        <time>2015-05-17T13:40:38 +0200</time>
      </trkpt>
      <trkpt lat="48.75488" lon="2.13255">
        <ele>145</ele>
        <time>2015-05-17T13:40:52 +0200</time>
      </trkpt>
      <trkpt lat="48.75443" lon="2.1332">
        <ele>138</ele>
        <time>2015-05-17T13:44:55 +0200</time>
      </trkpt>
      <trkpt lat="48.75429" lon="2.1327">
        <ele>138</ele>
        <time>2015-05-17T13:45:24 +0200</time>
      </trkpt>
      <trkpt lat="48.75409" lon="2.13236">
        <ele>134</ele>
        <time>2015-05-17T13:45:47 +0200</time>
      </trkpt>
      <trkpt lat="48.75405" lon="2.13234">
        <ele>134</ele>
        <time>2015-05-17T13:45:52 +0200</time>
      </trkpt>
      <trkpt lat="48.75398" lon="2.13223">
        <ele>134</ele>
        <time>2015-05-17T13:46:02 +0200</time>
      </trkpt>
      <trkpt lat="48.75378" lon="2.13173">
        <ele>135</ele>
        <time>2015-05-17T13:46:35 +0200</time>
      </trkpt>
      <trkpt lat="48.75366" lon="2.13133">
        <ele>136</ele>
        <time>2015-05-17T13:47:09 +0200</time>
      </trkpt>
      <trkpt lat="48.7533" lon="2.13085">
        <ele>133</ele>
        <time>2015-05-17T13:47:42 +0200</time>
      </trkpt>
      <trkpt lat="48.75311" lon="2.13069">
        <ele>133</ele>
        <time>2015-05-17T13:48:16 +0200</time>
      </trkpt>
      <trkpt lat="48.75306" lon="2.13087">
        <ele>131</ele>
        <time>2015-05-17T13:48:33 +0200</time>
      </trkpt>
      <trkpt lat="48.75324" lon="2.13162">
        <ele>139</ele>
        <time>2015-05-17T13:49:04 +0200</time>
      </trkpt>
      <trkpt lat="48.75328" lon="2.13176">
        <ele>141</ele>
        <time>2015-05-17T13:49:12 +0200</time>
      </trkpt>
      <trkpt lat="48.75347" lon="2.1322">
        <ele>146</ele>
        <time>2015-05-17T13:49:44 +0200</time>
      </trkpt>
      <trkpt lat="48.75361" lon="2.13269">
        <ele>146</ele>
        <time>2015-05-17T13:50:16 +0200</time>
      </trkpt>
      <trkpt lat="48.75366" lon="2.13277">
        <ele>143</ele>
        <time>2015-05-17T13:50:24 +0200</time>
      </trkpt>
      <trkpt lat="48.75374" lon="2.13313">
        <ele>136</ele>
        <time>2015-05-17T13:50:49 +0200</time>
      </trkpt>
      <trkpt lat="48.75382" lon="2.1337">
        <ele>130</ele>
        <time>2015-05-17T13:51:20 +0200</time>
      </trkpt>
      <trkpt lat="48.75388" lon="2.13433">
        <ele>130</ele>
        <time>2015-05-17T13:51:51 +0200</time>
      </trkpt>
      <trkpt lat="48.75397" lon="2.13488">
        <ele>130</ele>
        <time>2015-05-17T13:52:22 +0200</time>
      </trkpt>
      <trkpt lat="48.75401" lon="2.13539">
        <ele>124</ele>
        <time>2015-05-17T13:52:52 +0200</time>
      </trkpt>
      <trkpt lat="48.75405" lon="2.13577">
        <ele>121</ele>
        <time>2015-05-17T13:53:13 +0200</time>
      </trkpt>
      <trkpt lat="48.75402" lon="2.13583">
        <ele>121</ele>
        <time>2015-05-17T13:53:19 +0200</time>
      </trkpt>
      <trkpt lat="48.75377" lon="2.13588">
        <ele>119</ele>
        <time>2015-05-17T13:53:38 +0200</time>
      </trkpt>
      <trkpt lat="48.75371" lon="2.13593">
        <ele>118</ele>
        <time>2015-05-17T13:53:45 +0200</time>
      </trkpt>
      <trkpt lat="48.75373" lon="2.13608">
        <ele>118</ele>
        <time>2015-05-17T13:53:58 +0200</time>
      </trkpt>
      <trkpt lat="48.75382" lon="2.13673">
        <ele>118</ele>
        <time>2015-05-17T13:54:30 +0200</time>
      </trkpt>
      <trkpt lat="48.75389" lon="2.13716">
        <ele>118</ele>
        <time>2015-05-17T13:54:52 +0200</time>
      </trkpt>
      <trkpt lat="48.75383" lon="2.13773">
        <ele>116</ele>
        <time>2015-05-17T13:55:23 +0200</time>
      </trkpt>
      <trkpt lat="48.75393" lon="2.1382">
        <ele>114</ele>
        <time>2015-05-17T13:55:55 +0200</time>
      </trkpt>
      <trkpt lat="48.75399" lon="2.13872">
        <ele>109</ele>
        <time>2015-05-17T13:56:25 +0200</time>
      </trkpt>
      <trkpt lat="48.75402" lon="2.13937">
        <ele>109</ele>
        <time>2015-05-17T13:56:56 +0200</time>
      </trkpt>
      <trkpt lat="48.75409" lon="2.13936">
        <ele>109</ele>
        <time>2015-05-17T13:57:02 +0200</time>
      </trkpt>
      <trkpt lat="48.75451" lon="2.13917">
        <ele>109</ele>
        <time>2015-05-17T13:57:35 +0200</time>
      </trkpt>
      <trkpt lat="48.75468" lon="2.13917">
        <ele>110</ele>
        <time>2015-05-17T13:57:56 +0200</time>
      </trkpt>
      <trkpt lat="48.75468" lon="2.13932">
        <ele>111</ele>
        <time>2015-05-17T13:58:13 +0200</time>
      </trkpt>
      <trkpt lat="48.75467" lon="2.1394">
        <ele>111</ele>
        <time>2015-05-17T13:58:19 +0200</time>
      </trkpt>
      <trkpt lat="48.75465" lon="2.13955">
        <ele>112</ele>
        <time>2015-05-17T13:58:26 +0200</time>
      </trkpt>
      <trkpt lat="48.75469" lon="2.13988">
        <ele>112</ele>
        <time>2015-05-17T13:58:39 +0200</time>
      </trkpt>
      <trkpt lat="48.7547" lon="2.13993">
        <ele>111</ele>
        <time>2015-05-17T13:58:42 +0200</time>
      </trkpt>
      <trkpt lat="48.75498" lon="2.14027">
        <ele>113</ele>
        <time>2015-05-17T13:59:12 +0200</time>
      </trkpt>
      <trkpt lat="48.75513" lon="2.14045">
        <ele>114</ele>
        <time>2015-05-17T13:59:30 +0200</time>
      </trkpt>
      <trkpt lat="48.75516" lon="2.1406">
        <ele>114</ele>
        <time>2015-05-17T13:59:38 +0200</time>
      </trkpt>
      <trkpt lat="48.75515" lon="2.14099">
        <ele>114</ele>
        <time>2015-05-17T14:00:01 +0200</time>
      </trkpt>
      <trkpt lat="48.75507" lon="2.14105">
        <ele>113</ele>
        <time>2015-05-17T14:00:10 +0200</time>
      </trkpt>
      <trkpt lat="48.75499" lon="2.14111">
        <ele>110</ele>
        <time>2015-05-17T14:00:18 +0200</time>
      </trkpt>
      <trkpt lat="48.75484" lon="2.1412">
        <ele>106</ele>
        <time>2015-05-17T14:00:48 +0200</time>
      </trkpt>
      <trkpt lat="48.7549" lon="2.14121">
        <ele>106</ele>
        <time>2015-05-17T14:01:15 +0200</time>
      </trkpt>
      <trkpt lat="48.755" lon="2.1411">
        <ele>107</ele>
        <time>2015-05-17T14:01:27 +0200</time>
      </trkpt>
      <trkpt lat="48.75503" lon="2.14106">
        <ele>107</ele>
        <time>2015-05-17T14:01:35 +0200</time>
      </trkpt>
      <trkpt lat="48.75514" lon="2.14096">
        <ele>110</ele>
        <time>2015-05-17T14:01:43 +0200</time>
      </trkpt>
      <trkpt lat="48.7554" lon="2.14079">
        <ele>112</ele>
        <time>2015-05-17T14:02:14 +0200</time>
      </trkpt>
      <trkpt lat="48.75566" lon="2.1407">
        <ele>114</ele>
        <time>2015-05-17T14:02:36 +0200</time>
      </trkpt>
      <trkpt lat="48.75575" lon="2.14079">
        <ele>116</ele>
        <time>2015-05-17T14:02:48 +0200</time>
      </trkpt>
      <trkpt lat="48.75583" lon="2.14081">
        <ele>117</ele>
        <time>2015-05-17T14:02:56 +0200</time>
      </trkpt>
      <trkpt lat="48.75587" lon="2.14085">
        <ele>118</ele>
        <time>2015-05-17T14:03:01 +0200</time>
      </trkpt>
      <trkpt lat="48.7561" lon="2.14095">
        <ele>124</ele>
        <time>2015-05-17T14:03:28 +0200</time>
      </trkpt>
      <trkpt lat="48.75632" lon="2.14104">
        <ele>127</ele>
        <time>2015-05-17T14:03:48 +0200</time>
      </trkpt>
      <trkpt lat="48.75644" lon="2.14108">
        <ele>127</ele>
        <time>2015-05-17T14:03:58 +0200</time>
      </trkpt>
      <trkpt lat="48.75651" lon="2.14131">
        <ele>127</ele>
        <time>2015-05-17T14:04:12 +0200</time>
      </trkpt>
      <trkpt lat="48.75656" lon="2.14135">
        <ele>129</ele>
        <time>2015-05-17T14:04:17 +0200</time>
      </trkpt>
      <trkpt lat="48.75658" lon="2.14145">
        <ele>131</ele>
        <time>2015-05-17T14:04:24 +0200</time>
      </trkpt>
      <trkpt lat="48.75673" lon="2.14153">
        <ele>134</ele>
        <time>2015-05-17T14:04:40 +0200</time>
      </trkpt>
      <trkpt lat="48.7568" lon="2.14146">
        <ele>139</ele>
        <time>2015-05-17T14:04:45 +0200</time>
      </trkpt>
      <trkpt lat="48.7569" lon="2.14143">
        <ele>140</ele>
        <time>2015-05-17T14:04:53 +0200</time>
      </trkpt>
      <trkpt lat="48.75695" lon="2.14149">
        <ele>140</ele>
        <time>2015-05-17T14:04:57 +0200</time>
      </trkpt>
      <trkpt lat="48.75731" lon="2.14179">
        <ele>139</ele>
        <time>2015-05-17T14:05:28 +0200</time>
      </trkpt>
      <trkpt lat="48.75742" lon="2.14191">
        <ele>137</ele>
        <time>2015-05-17T14:05:37 +0200</time>
      </trkpt>
      <trkpt lat="48.75766" lon="2.14244">
        <ele>135</ele>
        <time>2015-05-17T14:06:10 +0200</time>
      </trkpt>
      <trkpt lat="48.75781" lon="2.14292">
        <ele>135</ele>
        <time>2015-05-17T14:06:44 +0200</time>
      </trkpt>
      <trkpt lat="48.75802" lon="2.14324">
        <ele>132</ele>
        <time>2015-05-17T14:07:16 +0200</time>
      </trkpt>
      <trkpt lat="48.75808" lon="2.14334">
        <ele>132</ele>
        <time>2015-05-17T14:07:25 +0200</time>
      </trkpt>
      <trkpt lat="48.7582" lon="2.14369">
        <ele>129</ele>
        <time>2015-05-17T14:08:00 +0200</time>
      </trkpt>
      <trkpt lat="48.75825" lon="2.14445">
        <ele>124</ele>
        <time>2015-05-17T14:08:31 +0200</time>
      </trkpt>
      <trkpt lat="48.75838" lon="2.14501">
        <ele>119</ele>
        <time>2015-05-17T14:09:01 +0200</time>
      </trkpt>
      <trkpt lat="48.75846" lon="2.1452">
        <ele>116</ele>
        <time>2015-05-17T14:09:17 +0200</time>
      </trkpt>
      <trkpt lat="48.75847" lon="2.14553">
        <ele>110</ele>
        <time>2015-05-17T14:09:39 +0200</time>
      </trkpt>
      <trkpt lat="48.75837" lon="2.14611">
        <ele>107</ele>
        <time>2015-05-17T14:10:11 +0200</time>
      </trkpt>
      <trkpt lat="48.75827" lon="2.14689">
        <ele>108</ele>
        <time>2015-05-17T14:10:41 +0200</time>
      </trkpt>
      <trkpt lat="48.75826" lon="2.14716">
        <ele>106</ele>
        <time>2015-05-17T14:10:56 +0200</time>
      </trkpt>
      <trkpt lat="48.75812" lon="2.14762">
        <ele>105</ele>
        <time>2015-05-17T14:11:21 +0200</time>
      </trkpt>
      <trkpt lat="48.75809" lon="2.14765">
        <ele>105</ele>
        <time>2015-05-17T14:11:25 +0200</time>
      </trkpt>
      <trkpt lat="48.75801" lon="2.14782">
        <ele>105</ele>
        <time>2015-05-17T14:11:37 +0200</time>
      </trkpt>
      <trkpt lat="48.758" lon="2.14787">
        <ele>104</ele>
        <time>2015-05-17T14:11:42 +0200</time>
      </trkpt>
      <trkpt lat="48.758" lon="2.14823">
        <ele>94</ele>
        <time>2015-05-17T14:12:09 +0200</time>
      </trkpt>
      <trkpt lat="48.75805" lon="2.14833">
        <ele>90</ele>
        <time>2015-05-17T14:12:16 +0200</time>
      </trkpt>
      <trkpt lat="48.7581" lon="2.14842">
        <ele>88</ele>
        <time>2015-05-17T14:12:27 +0200</time>
      </trkpt>
      <trkpt lat="48.7581" lon="2.14855">
        <ele>86</ele>
        <time>2015-05-17T14:12:37 +0200</time>
      </trkpt>
      <trkpt lat="48.75814" lon="2.14872">
        <ele>79</ele>
        <time>2015-05-17T14:12:59 +0200</time>
      </trkpt>
      <trkpt lat="48.75822" lon="2.14885">
        <ele>72</ele>
        <time>2015-05-17T14:13:32 +0200</time>
      </trkpt>
      <trkpt lat="48.75829" lon="2.14905">
        <ele>69</ele>
        <time>2015-05-17T14:13:50 +0200</time>
      </trkpt>
      <trkpt lat="48.75819" lon="2.15027">
        <ele>76</ele>
        <time>2015-05-17T14:14:09 +0200</time>
      </trkpt>
      <trkpt lat="48.75822" lon="2.15054">
        <ele>82</ele>
        <time>2015-05-17T14:14:22 +0200</time>
      </trkpt>
      <trkpt lat="48.75825" lon="2.15086">
        <ele>89</ele>
        <time>2015-05-17T14:14:36 +0200</time>
      </trkpt>
      <trkpt lat="48.75838" lon="2.15154">
        <ele>99</ele>
        <time>2015-05-17T14:15:08 +0200</time>
      </trkpt>
      <trkpt lat="48.75846" lon="2.15179">
        <ele>102</ele>
        <time>2015-05-17T14:15:26 +0200</time>
      </trkpt>
      <trkpt lat="48.75841" lon="2.15181">
        <ele>103</ele>
        <time>2015-05-17T14:15:57 +0200</time>
      </trkpt>
      <trkpt lat="48.75834" lon="2.15176">
        <ele>103</ele>
        <time>2015-05-17T14:16:11 +0200</time>
      </trkpt>
      <trkpt lat="48.75836" lon="2.15186">
        <ele>108</ele>
        <time>2015-05-17T14:17:55 +0200</time>
      </trkpt>
      <trkpt lat="48.75833" lon="2.15189">
        <ele>108</ele>
        <time>2015-05-17T14:18:29 +0200</time>
      </trkpt>
      <trkpt lat="48.75828" lon="2.15198">
        <ele>109</ele>
        <time>2015-05-17T14:19:06 +0200</time>
      </trkpt>
      <trkpt lat="48.75818" lon="2.15206">
        <ele>107</ele>
        <time>2015-05-17T14:19:23 +0200</time>
      </trkpt>
      <trkpt lat="48.75809" lon="2.15207">
        <ele>106</ele>
        <time>2015-05-17T14:19:30 +0200</time>
      </trkpt>
      <trkpt lat="48.75778" lon="2.1523">
        <ele>104</ele>
        <time>2015-05-17T14:20:02 +0200</time>
      </trkpt>
      <trkpt lat="48.75745" lon="2.15253">
        <ele>104</ele>
        <time>2015-05-17T14:20:37 +0200</time>
      </trkpt>
      <trkpt lat="48.75727" lon="2.15269">
        <ele>104</ele>
        <time>2015-05-17T14:20:57 +0200</time>
      </trkpt>
      <trkpt lat="48.75722" lon="2.15282">
        <ele>104</ele>
        <time>2015-05-17T14:21:04 +0200</time>
      </trkpt>
      <trkpt lat="48.7572" lon="2.15291">
        <ele>106</ele>
        <time>2015-05-17T14:21:18 +0200</time>
      </trkpt>
      <trkpt lat="48.75715" lon="2.15297">
        <ele>106</ele>
        <time>2015-05-17T14:21:31 +0200</time>
      </trkpt>
      <trkpt lat="48.75706" lon="2.15302">
        <ele>106</ele>
        <time>2015-05-17T14:21:34 +0200</time>
      </trkpt>
      <trkpt lat="48.75685" lon="2.1532">
        <ele>108</ele>
        <time>2015-05-17T14:21:47 +0200</time>
      </trkpt>
      <trkpt lat="48.75681" lon="2.15323">
        <ele>109</ele>
        <time>2015-05-17T14:21:51 +0200</time>
      </trkpt>
      <trkpt lat="48.75677" lon="2.15324">
        <ele>110</ele>
        <time>2015-05-17T14:21:56 +0200</time>
      </trkpt>
      <trkpt lat="48.75653" lon="2.15315">
        <ele>112</ele>
        <time>2015-05-17T14:22:31 +0200</time>
      </trkpt>
      <trkpt lat="48.75639" lon="2.15306">
        <ele>114</ele>
        <time>2015-05-17T14:22:48 +0200</time>
      </trkpt>
      <trkpt lat="48.75603" lon="2.15307">
        <ele>113</ele>
        <time>2015-05-17T14:23:20 +0200</time>
      </trkpt>
      <trkpt lat="48.75593" lon="2.15305">
        <ele>115</ele>
        <time>2015-05-17T14:23:34 +0200</time>
      </trkpt>
      <trkpt lat="48.7559" lon="2.15308">
        <ele>116</ele>
        <time>2015-05-17T14:23:40 +0200</time>
      </trkpt>
      <trkpt lat="48.75589" lon="2.15315">
        <ele>117</ele>
        <time>2015-05-17T14:23:46 +0200</time>
      </trkpt>
      <trkpt lat="48.75591" lon="2.1532">
        <ele>117</ele>
        <time>2015-05-17T14:23:52 +0200</time>
      </trkpt>
      <trkpt lat="48.75591" lon="2.15326">
        <ele>118</ele>
        <time>2015-05-17T14:24:02 +0200</time>
      </trkpt>
      <trkpt lat="48.75596" lon="2.15353">
        <ele>124</ele>
        <time>2015-05-17T14:24:39 +0200</time>
      </trkpt>
      <trkpt lat="48.75602" lon="2.15371">
        <ele>130</ele>
        <time>2015-05-17T14:25:02 +0200</time>
      </trkpt>
      <trkpt lat="48.75598" lon="2.15383">
        <ele>132</ele>
        <time>2015-05-17T14:25:15 +0200</time>
      </trkpt>
      <trkpt lat="48.7559" lon="2.15389">
        <ele>133</ele>
        <time>2015-05-17T14:25:19 +0200</time>
      </trkpt>
      <trkpt lat="48.75584" lon="2.15395">
        <ele>135</ele>
        <time>2015-05-17T14:25:21 +0200</time>
      </trkpt>
      <trkpt lat="48.75566" lon="2.15433">
        <ele>141</ele>
        <time>2015-05-17T14:25:52 +0200</time>
      </trkpt>
      <trkpt lat="48.75552" lon="2.15456">
        <ele>144</ele>
        <time>2015-05-17T14:26:26 +0200</time>
      </trkpt>
      <trkpt lat="48.75531" lon="2.15485">
        <ele>146</ele>
        <time>2015-05-17T14:26:52 +0200</time>
      </trkpt>
      <trkpt lat="48.75512" lon="2.15513">
        <ele>147</ele>
        <time>2015-05-17T14:27:19 +0200</time>
      </trkpt>
      <trkpt lat="48.75504" lon="2.15512">
        <ele>147</ele>
        <time>2015-05-17T14:27:27 +0200</time>
      </trkpt>
      <trkpt lat="48.755" lon="2.15511">
        <ele>147</ele>
        <time>2015-05-17T14:27:31 +0200</time>
      </trkpt>
      <trkpt lat="48.75494" lon="2.15503">
        <ele>147</ele>
        <time>2015-05-17T14:27:41 +0200</time>
      </trkpt>
      <trkpt lat="48.75459" lon="2.15498">
        <ele>146</ele>
        <time>2015-05-17T14:28:11 +0200</time>
      </trkpt>
      <trkpt lat="48.75431" lon="2.15508">
        <ele>148</ele>
        <time>2015-05-17T14:28:41 +0200</time>
      </trkpt>
      <trkpt lat="48.75434" lon="2.15517">
        <ele>149</ele>
        <time>2015-05-17T14:34:50 +0200</time>
      </trkpt>
      <trkpt lat="48.75448" lon="2.15567">
        <ele>146</ele>
        <time>2015-05-17T14:35:21 +0200</time>
      </trkpt>
      <trkpt lat="48.75461" lon="2.15612">
        <ele>147</ele>
        <time>2015-05-17T14:35:51 +0200</time>
      </trkpt>
      <trkpt lat="48.75463" lon="2.15624">
        <ele>149</ele>
        <time>2015-05-17T14:35:58 +0200</time>
      </trkpt>
      <trkpt lat="48.75452" lon="2.15671">
        <ele>147</ele>
        <time>2015-05-17T14:36:32 +0200</time>
      </trkpt>
      <trkpt lat="48.75448" lon="2.15683">
        <ele>147</ele>
        <time>2015-05-17T14:36:39 +0200</time>
      </trkpt>
      <trkpt lat="48.75435" lon="2.15731">
        <ele>150</ele>
        <time>2015-05-17T14:37:10 +0200</time>
      </trkpt>
      <trkpt lat="48.75417" lon="2.15778">
        <ele>152</ele>
        <time>2015-05-17T14:37:42 +0200</time>
      </trkpt>
      <trkpt lat="48.75411" lon="2.15801">
        <ele>153</ele>
        <time>2015-05-17T14:37:59 +0200</time>
      </trkpt>
      <trkpt lat="48.75411" lon="2.15806">
        <ele>153</ele>
        <time>2015-05-17T14:38:02 +0200</time>
      </trkpt>
      <trkpt lat="48.75415" lon="2.15837">
        <ele>156</ele>
        <time>2015-05-17T14:38:30 +0200</time>
      </trkpt>
      <trkpt lat="48.75417" lon="2.15845">
        <ele>156</ele>
        <time>2015-05-17T14:38:39 +0200</time>
      </trkpt>
      <trkpt lat="48.75423" lon="2.15849">
        <ele>156</ele>
        <time>2015-05-17T14:38:45 +0200</time>
      </trkpt>
      <trkpt lat="48.75431" lon="2.1586">
        <ele>153</ele>
        <time>2015-05-17T14:39:10 +0200</time>
      </trkpt>
      <trkpt lat="48.75435" lon="2.15859">
        <ele>151</ele>
        <time>2015-05-17T14:39:26 +0200</time>
      </trkpt>
      <trkpt lat="48.75439" lon="2.1586">
        <ele>149</ele>
        <time>2015-05-17T14:39:35 +0200</time>
      </trkpt>
      <trkpt lat="48.75436" lon="2.15864">
        <ele>146</ele>
        <time>2015-05-17T14:41:22 +0200</time>
      </trkpt>
      <trkpt lat="48.75437" lon="2.15854">
        <ele>148</ele>
        <time>2015-05-17T14:44:59 +0200</time>
      </trkpt>
      <trkpt lat="48.75434" lon="2.15849">
        <ele>148</ele>
        <time>2015-05-17T14:45:16 +0200</time>
      </trkpt>
      <trkpt lat="48.75429" lon="2.15844">
        <ele>149</ele>
        <time>2015-05-17T14:45:28 +0200</time>
      </trkpt>
      <trkpt lat="48.75425" lon="2.15845">
        <ele>149</ele>
        <time>2015-05-17T14:45:31 +0200</time>
      </trkpt>
      <trkpt lat="48.75412" lon="2.1587">
        <ele>149</ele>
        <time>2015-05-17T14:45:45 +0200</time>
      </trkpt>
      <trkpt lat="48.75395" lon="2.1587">
        <ele>150</ele>
        <time>2015-05-17T14:46:01 +0200</time>
      </trkpt>
      <trkpt lat="48.75393" lon="2.15868">
        <ele>150</ele>
        <time>2015-05-17T14:46:05 +0200</time>
      </trkpt>
      <trkpt lat="48.7538" lon="2.15861">
        <ele>152</ele>
        <time>2015-05-17T14:46:19 +0200</time>
      </trkpt>
      <trkpt lat="48.75377" lon="2.15864">
        <ele>152</ele>
        <time>2015-05-17T14:46:23 +0200</time>
      </trkpt>
      <trkpt lat="48.75361" lon="2.15907">
        <ele>152</ele>
        <time>2015-05-17T14:46:54 +0200</time>
      </trkpt>
      <trkpt lat="48.75342" lon="2.15952">
        <ele>150</ele>
        <time>2015-05-17T14:47:26 +0200</time>
      </trkpt>
      <trkpt lat="48.75328" lon="2.16">
        <ele>150</ele>
        <time>2015-05-17T14:47:59 +0200</time>
      </trkpt>
      <trkpt lat="48.75313" lon="2.1605">
        <ele>151</ele>
        <time>2015-05-17T14:48:30 +0200</time>
      </trkpt>
      <trkpt lat="48.75295" lon="2.16103">
        <ele>153</ele>
        <time>2015-05-17T14:49:01 +0200</time>
      </trkpt>
      <trkpt lat="48.7528" lon="2.16148">
        <ele>153</ele>
        <time>2015-05-17T14:49:33 +0200</time>
      </trkpt>
      <trkpt lat="48.75265" lon="2.16188">
        <ele>153</ele>
        <time>2015-05-17T14:50:08 +0200</time>
      </trkpt>
      <trkpt lat="48.75248" lon="2.16234">
        <ele>155</ele>
        <time>2015-05-17T14:50:40 +0200</time>
      </trkpt>
      <trkpt lat="48.75235" lon="2.16281">
        <ele>155</ele>
        <time>2015-05-17T14:51:12 +0200</time>
      </trkpt>
      <trkpt lat="48.75217" lon="2.16329">
        <ele>155</ele>
        <time>2015-05-17T14:51:43 +0200</time>
      </trkpt>
      <trkpt lat="48.75199" lon="2.16372">
        <ele>155</ele>
        <time>2015-05-17T14:52:13 +0200</time>
      </trkpt>
      <trkpt lat="48.7518" lon="2.16402">
        <ele>155</ele>
        <time>2015-05-17T14:52:45 +0200</time>
      </trkpt>
      <trkpt lat="48.75158" lon="2.16442">
        <ele>155</ele>
        <time>2015-05-17T14:53:17 +0200</time>
      </trkpt>
      <trkpt lat="48.75136" lon="2.16483">
        <ele>156</ele>
        <time>2015-05-17T14:53:48 +0200</time>
      </trkpt>
      <trkpt lat="48.75112" lon="2.16522">
        <ele>156</ele>
        <time>2015-05-17T14:54:19 +0200</time>
      </trkpt>
      <trkpt lat="48.75085" lon="2.16552">
        <ele>156</ele>
        <time>2015-05-17T14:54:50 +0200</time>
      </trkpt>
      <trkpt lat="48.75083" lon="2.16552">
        <ele>156</ele>
        <time>2015-05-17T14:54:52 +0200</time>
      </trkpt>
      <trkpt lat="48.7508" lon="2.16553">
        <ele>156</ele>
        <time>2015-05-17T14:54:56 +0200</time>
      </trkpt>
      <trkpt lat="48.75052" lon="2.16576">
        <ele>156</ele>
        <time>2015-05-17T14:55:23 +0200</time>
      </trkpt>
      <trkpt lat="48.75053" lon="2.16588">
        <ele>156</ele>
        <time>2015-05-17T14:55:32 +0200</time>
      </trkpt>
      <trkpt lat="48.75059" lon="2.16615">
        <ele>155</ele>
        <time>2015-05-17T14:55:53 +0200</time>
      </trkpt>
      <trkpt lat="48.75057" lon="2.1662">
        <ele>155</ele>
        <time>2015-05-17T14:56:32 +0200</time>
      </trkpt>
      <trkpt lat="48.75041" lon="2.16653">
        <ele>155</ele>
        <time>2015-05-17T14:56:56 +0200</time>
      </trkpt>
      <trkpt lat="48.7502" lon="2.16675">
        <ele>156</ele>
        <time>2015-05-17T14:57:19 +0200</time>
      </trkpt>
      <trkpt lat="48.75018" lon="2.16676">
        <ele>156</ele>
        <time>2015-05-17T14:57:51 +0200</time>
      </trkpt>
      <trkpt lat="48.75004" lon="2.1671">
        <ele>156</ele>
        <time>2015-05-17T14:58:23 +0200</time>
      </trkpt>
      <trkpt lat="48.7499" lon="2.16756">
        <ele>156</ele>
        <time>2015-05-17T14:58:54 +0200</time>
      </trkpt>
      <trkpt lat="48.74981" lon="2.16813">
        <ele>156</ele>
        <time>2015-05-17T14:59:24 +0200</time>
      </trkpt>
      <trkpt lat="48.74977" lon="2.16826">
        <ele>156</ele>
        <time>2015-05-17T14:59:33 +0200</time>
      </trkpt>
      <trkpt lat="48.74981" lon="2.1688">
        <ele>157</ele>
        <time>2015-05-17T15:00:04 +0200</time>
      </trkpt>
      <trkpt lat="48.74983" lon="2.16928">
        <ele>156</ele>
        <time>2015-05-17T15:00:34 +0200</time>
      </trkpt>
      <trkpt lat="48.74985" lon="2.16982">
        <ele>154</ele>
        <time>2015-05-17T15:01:05 +0200</time>
      </trkpt>
      <trkpt lat="48.74984" lon="2.1703">
        <ele>153</ele>
        <time>2015-05-17T15:01:37 +0200</time>
      </trkpt>
      <trkpt lat="48.74974" lon="2.17089">
        <ele>152</ele>
        <time>2015-05-17T15:02:09 +0200</time>
      </trkpt>
      <trkpt lat="48.74957" lon="2.17135">
        <ele>152</ele>
        <time>2015-05-17T15:02:39 +0200</time>
      </trkpt>
      <trkpt lat="48.74941" lon="2.17193">
        <ele>153</ele>
        <time>2015-05-17T15:03:12 +0200</time>
      </trkpt>
      <trkpt lat="48.74936" lon="2.17245">
        <ele>150</ele>
        <time>2015-05-17T15:03:44 +0200</time>
      </trkpt>
      <trkpt lat="48.7494" lon="2.17263">
        <ele>150</ele>
        <time>2015-05-17T15:03:55 +0200</time>
      </trkpt>
      <trkpt lat="48.74944" lon="2.17279">
        <ele>150</ele>
        <time>2015-05-17T15:04:13 +0200</time>
      </trkpt>
      <trkpt lat="48.7495" lon="2.17289">
        <ele>150</ele>
        <time>2015-05-17T15:05:00 +0200</time>
      </trkpt>
      <trkpt lat="48.74977" lon="2.17321">
        <ele>151</ele>
        <time>2015-05-17T15:05:32 +0200</time>
      </trkpt>
      <trkpt lat="48.75012" lon="2.17349">
        <ele>150</ele>
        <time>2015-05-17T15:06:04 +0200</time>
      </trkpt>
      <trkpt lat="48.75043" lon="2.17373">
        <ele>150</ele>
        <time>2015-05-17T15:06:35 +0200</time>
      </trkpt>
      <trkpt lat="48.75076" lon="2.17395">
        <ele>150</ele>
        <time>2015-05-17T15:07:05 +0200</time>
      </trkpt>
      <trkpt lat="48.75089" lon="2.17428">
        <ele>151</ele>
        <time>2015-05-17T15:07:32 +0200</time>
      </trkpt>
      <trkpt lat="48.75102" lon="2.17476">
        <ele>152</ele>
        <time>2015-05-17T15:08:03 +0200</time>
      </trkpt>
      <trkpt lat="48.75113" lon="2.17526">
        <ele>153</ele>
        <time>2015-05-17T15:08:34 +0200</time>
      </trkpt>
      <trkpt lat="48.75134" lon="2.17566">
        <ele>153</ele>
        <time>2015-05-17T15:09:05 +0200</time>
      </trkpt>
      <trkpt lat="48.75164" lon="2.17595">
        <ele>153</ele>
        <time>2015-05-17T15:09:35 +0200</time>
      </trkpt>
      <trkpt lat="48.75197" lon="2.17618">
        <ele>153</ele>
        <time>2015-05-17T15:10:05 +0200</time>
      </trkpt>
      <trkpt lat="48.75234" lon="2.17634">
        <ele>153</ele>
        <time>2015-05-17T15:10:36 +0200</time>
      </trkpt>
      <trkpt lat="48.75267" lon="2.1765">
        <ele>151</ele>
        <time>2015-05-17T15:11:07 +0200</time>
      </trkpt>
      <trkpt lat="48.75302" lon="2.17674">
        <ele>150</ele>
        <time>2015-05-17T15:11:37 +0200</time>
      </trkpt>
      <trkpt lat="48.75337" lon="2.17709">
        <ele>151</ele>
        <time>2015-05-17T15:12:08 +0200</time>
      </trkpt>
      <trkpt lat="48.75364" lon="2.17743">
        <ele>152</ele>
        <time>2015-05-17T15:12:38 +0200</time>
      </trkpt>
      <trkpt lat="48.75378" lon="2.17759">
        <ele>151</ele>
        <time>2015-05-17T15:12:55 +0200</time>
      </trkpt>
      <trkpt lat="48.75385" lon="2.17757">
        <ele>150</ele>
        <time>2015-05-17T15:13:02 +0200</time>
      </trkpt>
      <trkpt lat="48.7539" lon="2.17764">
        <ele>150</ele>
        <time>2015-05-17T15:13:08 +0200</time>
      </trkpt>
      <trkpt lat="48.75394" lon="2.17786">
        <ele>150</ele>
        <time>2015-05-17T15:13:19 +0200</time>
      </trkpt>
      <trkpt lat="48.75426" lon="2.17821">
        <ele>150</ele>
        <time>2015-05-17T15:13:49 +0200</time>
      </trkpt>
      <trkpt lat="48.75448" lon="2.17857">
        <ele>147</ele>
        <time>2015-05-17T15:14:20 +0200</time>
      </trkpt>
      <trkpt lat="48.75486" lon="2.17897">
        <ele>146</ele>
        <time>2015-05-17T15:14:52 +0200</time>
      </trkpt>
      <trkpt lat="48.75495" lon="2.17911">
        <ele>148</ele>
        <time>2015-05-17T15:15:03 +0200</time>
      </trkpt>
      <trkpt lat="48.75496" lon="2.17917">
        <ele>148</ele>
        <time>2015-05-17T15:15:07 +0200</time>
      </trkpt>
      <trkpt lat="48.75499" lon="2.17945">
        <ele>146</ele>
        <time>2015-05-17T15:15:34 +0200</time>
      </trkpt>
      <trkpt lat="48.75501" lon="2.17951">
        <ele>146</ele>
        <time>2015-05-17T15:15:39 +0200</time>
      </trkpt>
      <trkpt lat="48.75502" lon="2.17956">
        <ele>146</ele>
        <time>2015-05-17T15:15:42 +0200</time>
      </trkpt>
      <trkpt lat="48.755" lon="2.17966">
        <ele>145</ele>
        <time>2015-05-17T15:15:49 +0200</time>
      </trkpt>
      <trkpt lat="48.75474" lon="2.17994">
        <ele>141</ele>
        <time>2015-05-17T15:16:20 +0200</time>
      </trkpt>
      <trkpt lat="48.75445" lon="2.18034">
        <ele>139</ele>
        <time>2015-05-17T15:16:53 +0200</time>
      </trkpt>
      <trkpt lat="48.75415" lon="2.18062">
        <ele>139</ele>
        <time>2015-05-17T15:17:23 +0200</time>
      </trkpt>
      <trkpt lat="48.75383" lon="2.18074">
        <ele>139</ele>
        <time>2015-05-17T15:17:53 +0200</time>
      </trkpt>
      <trkpt lat="48.75347" lon="2.18085">
        <ele>140</ele>
        <time>2015-05-17T15:18:24 +0200</time>
      </trkpt>
      <trkpt lat="48.75315" lon="2.18084">
        <ele>142</ele>
        <time>2015-05-17T15:18:56 +0200</time>
      </trkpt>
      <trkpt lat="48.75275" lon="2.1808">
        <ele>144</ele>
        <time>2015-05-17T15:19:28 +0200</time>
      </trkpt>
      <trkpt lat="48.75241" lon="2.18073">
        <ele>146</ele>
        <time>2015-05-17T15:19:59 +0200</time>
      </trkpt>
      <trkpt lat="48.75207" lon="2.18089">
        <ele>146</ele>
        <time>2015-05-17T15:20:30 +0200</time>
      </trkpt>
      <trkpt lat="48.75205" lon="2.18091">
        <ele>146</ele>
        <time>2015-05-17T15:20:32 +0200</time>
      </trkpt>
      <trkpt lat="48.75193" lon="2.18144">
        <ele>146</ele>
        <time>2015-05-17T15:21:02 +0200</time>
      </trkpt>
      <trkpt lat="48.75183" lon="2.18193">
        <ele>145</ele>
        <time>2015-05-17T15:21:34 +0200</time>
      </trkpt>
      <trkpt lat="48.7518" lon="2.18202">
        <ele>145</ele>
        <time>2015-05-17T15:21:41 +0200</time>
      </trkpt>
      <trkpt lat="48.75179" lon="2.18236">
        <ele>144</ele>
        <time>2015-05-17T15:22:11 +0200</time>
      </trkpt>
      <trkpt lat="48.75182" lon="2.18292">
        <ele>145</ele>
        <time>2015-05-17T15:22:43 +0200</time>
      </trkpt>
      <trkpt lat="48.75181" lon="2.18346">
        <ele>144</ele>
        <time>2015-05-17T15:23:14 +0200</time>
      </trkpt>
      <trkpt lat="48.7517" lon="2.18403">
        <ele>145</ele>
        <time>2015-05-17T15:23:47 +0200</time>
      </trkpt>
      <trkpt lat="48.75162" lon="2.18422">
        <ele>145</ele>
        <time>2015-05-17T15:24:02 +0200</time>
      </trkpt>
      <trkpt lat="48.75132" lon="2.18455">
        <ele>145</ele>
        <time>2015-05-17T15:24:32 +0200</time>
      </trkpt>
      <trkpt lat="48.75131" lon="2.18475">
        <ele>145</ele>
        <time>2015-05-17T15:24:45 +0200</time>
      </trkpt>
      <trkpt lat="48.75134" lon="2.18491">
        <ele>145</ele>
        <time>2015-05-17T15:24:57 +0200</time>
      </trkpt>
      <trkpt lat="48.75146" lon="2.18505">
        <ele>145</ele>
        <time>2015-05-17T15:25:10 +0200</time>
      </trkpt>
      <trkpt lat="48.75146" lon="2.18515">
        <ele>144</ele>
        <time>2015-05-17T15:25:22 +0200</time>
      </trkpt>
      <trkpt lat="48.75143" lon="2.18519">
        <ele>144</ele>
        <time>2015-05-17T15:25:31 +0200</time>
      </trkpt>
      <trkpt lat="48.75145" lon="2.18523">
        <ele>143</ele>
        <time>2015-05-17T15:25:34 +0200</time>
      </trkpt>
      <trkpt lat="48.75161" lon="2.18577">
        <ele>143</ele>
        <time>2015-05-17T15:26:05 +0200</time>
      </trkpt>
      <trkpt lat="48.75171" lon="2.18627">
        <ele>144</ele>
        <time>2015-05-17T15:26:36 +0200</time>
      </trkpt>
      <trkpt lat="48.75184" lon="2.18677">
        <ele>143</ele>
        <time>2015-05-17T15:27:06 +0200</time>
      </trkpt>
      <trkpt lat="48.75192" lon="2.18719">
        <ele>144</ele>
        <time>2015-05-17T15:27:36 +0200</time>
      </trkpt>
      <trkpt lat="48.75205" lon="2.18769">
        <ele>142</ele>
        <time>2015-05-17T15:28:08 +0200</time>
      </trkpt>
      <trkpt lat="48.75218" lon="2.1882">
        <ele>141</ele>
        <time>2015-05-17T15:28:38 +0200</time>
      </trkpt>
      <trkpt lat="48.75231" lon="2.18874">
        <ele>142</ele>
        <time>2015-05-17T15:29:10 +0200</time>
      </trkpt>
      <trkpt lat="48.75234" lon="2.18888">
        <ele>142</ele>
        <time>2015-05-17T15:29:17 +0200</time>
      </trkpt>
      <trkpt lat="48.7526" lon="2.1891">
        <ele>144</ele>
        <time>2015-05-17T15:29:47 +0200</time>
      </trkpt>
      <trkpt lat="48.75262" lon="2.18913">
        <ele>144</ele>
        <time>2015-05-17T15:29:50 +0200</time>
      </trkpt>
      <trkpt lat="48.75296" lon="2.1891">
        <ele>144</ele>
        <time>2015-05-17T15:30:20 +0200</time>
      </trkpt>
      <trkpt lat="48.75332" lon="2.18918">
        <ele>145</ele>
        <time>2015-05-17T15:30:51 +0200</time>
      </trkpt>
      <trkpt lat="48.75369" lon="2.18926">
        <ele>147</ele>
        <time>2015-05-17T15:31:24 +0200</time>
      </trkpt>
      <trkpt lat="48.75393" lon="2.18936">
        <ele>146</ele>
        <time>2015-05-17T15:31:46 +0200</time>
      </trkpt>
      <trkpt lat="48.75399" lon="2.18944">
        <ele>146</ele>
        <time>2015-05-17T15:31:52 +0200</time>
      </trkpt>
      <trkpt lat="48.75432" lon="2.18955">
        <ele>143</ele>
        <time>2015-05-17T15:32:26 +0200</time>
      </trkpt>
      <trkpt lat="48.75446" lon="2.18959">
        <ele>143</ele>
        <time>2015-05-17T15:32:38 +0200</time>
      </trkpt>
      <trkpt lat="48.75467" lon="2.18982">
        <ele>146</ele>
        <time>2015-05-17T15:33:04 +0200</time>
      </trkpt>
      <trkpt lat="48.75469" lon="2.18991">
        <ele>147</ele>
        <time>2015-05-17T15:33:09 +0200</time>
      </trkpt>
      <trkpt lat="48.75482" lon="2.19013">
        <ele>150</ele>
        <time>2015-05-17T15:33:19 +0200</time>
      </trkpt>
      <trkpt lat="48.75492" lon="2.19021">
        <ele>150</ele>
        <time>2015-05-17T15:33:30 +0200</time>
      </trkpt>
      <trkpt lat="48.75513" lon="2.19069">
        <ele>147</ele>
        <time>2015-05-17T15:34:01 +0200</time>
      </trkpt>
      <trkpt lat="48.75518" lon="2.19075">
        <ele>147</ele>
        <time>2015-05-17T15:34:06 +0200</time>
      </trkpt>
      <trkpt lat="48.75521" lon="2.19082">
        <ele>146</ele>
        <time>2015-05-17T15:34:18 +0200</time>
      </trkpt>
      <trkpt lat="48.75534" lon="2.19087">
        <ele>144</ele>
        <time>2015-05-17T15:34:25 +0200</time>
      </trkpt>
      <trkpt lat="48.75533" lon="2.1909">
        <ele>140</ele>
        <time>2015-05-17T15:35:00 +0200</time>
      </trkpt>
      <trkpt lat="48.75541" lon="2.19101">
        <ele>137</ele>
        <time>2015-05-17T15:35:43 +0200</time>
      </trkpt>
      <trkpt lat="48.75543" lon="2.191">
        <ele>129</ele>
        <time>2015-05-17T15:36:01 +0200</time>
      </trkpt>
      <trkpt lat="48.75547" lon="2.1908">
        <ele>132</ele>
        <time>2015-05-17T15:37:35 +0200</time>
      </trkpt>
      <trkpt lat="48.7556" lon="2.19074">
        <ele>131</ele>
        <time>2015-05-17T15:37:46 +0200</time>
      </trkpt>
      <trkpt lat="48.75567" lon="2.19071">
        <ele>123</ele>
        <time>2015-05-17T15:37:54 +0200</time>
      </trkpt>
      <trkpt lat="48.75584" lon="2.19061">
        <ele>122</ele>
        <time>2015-05-17T15:38:25 +0200</time>
      </trkpt>
      <trkpt lat="48.75594" lon="2.19058">
        <ele>120</ele>
        <time>2015-05-17T15:39:47 +0200</time>
      </trkpt>
      <trkpt lat="48.75608" lon="2.19056">
        <ele>120</ele>
        <time>2015-05-17T15:39:55 +0200</time>
      </trkpt>
      <trkpt lat="48.7564" lon="2.19027">
        <ele>120</ele>
        <time>2015-05-17T15:40:28 +0200</time>
      </trkpt>
      <trkpt lat="48.75654" lon="2.19024">
        <ele>119</ele>
        <time>2015-05-17T15:40:42 +0200</time>
      </trkpt>
      <trkpt lat="48.75694" lon="2.19003">
        <ele>117</ele>
        <time>2015-05-17T15:41:18 +0200</time>
      </trkpt>
      <trkpt lat="48.75721" lon="2.19037">
        <ele>109</ele>
        <time>2015-05-17T15:41:50 +0200</time>
      </trkpt>
      <trkpt lat="48.75757" lon="2.19076">
        <ele>101</ele>
        <time>2015-05-17T15:42:23 +0200</time>
      </trkpt>
      <trkpt lat="48.75762" lon="2.1908">
        <ele>100</ele>
        <time>2015-05-17T15:42:27 +0200</time>
      </trkpt>
      <trkpt lat="48.75778" lon="2.19055">
        <ele>99</ele>
        <time>2015-05-17T15:42:59 +0200</time>
      </trkpt>
      <trkpt lat="48.75779" lon="2.19036">
        <ele>99</ele>
        <time>2015-05-17T15:43:14 +0200</time>
      </trkpt>
      <trkpt lat="48.75791" lon="2.1906">
        <ele>99</ele>
        <time>2015-05-17T15:43:46 +0200</time>
      </trkpt>
      <trkpt lat="48.75799" lon="2.19077">
        <ele>98</ele>
        <time>2015-05-17T15:43:54 +0200</time>
      </trkpt>
      <trkpt lat="48.75782" lon="2.19115">
        <ele>95</ele>
        <time>2015-05-17T15:44:23 +0200</time>
      </trkpt>
      <trkpt lat="48.75793" lon="2.19163">
        <ele>91</ele>
        <time>2015-05-17T15:44:53 +0200</time>
      </trkpt>
      <trkpt lat="48.75823" lon="2.19193">
        <ele>86</ele>
        <time>2015-05-17T15:45:24 +0200</time>
      </trkpt>
      <trkpt lat="48.75863" lon="2.19208">
        <ele>85</ele>
        <time>2015-05-17T15:45:59 +0200</time>
      </trkpt>
      <trkpt lat="48.75905" lon="2.19188">
        <ele>85</ele>
        <time>2015-05-17T15:46:31 +0200</time>
      </trkpt>
      <trkpt lat="48.75926" lon="2.19184">
        <ele>87</ele>
        <time>2015-05-17T15:46:50 +0200</time>
      </trkpt>
      <trkpt lat="48.75946" lon="2.192">
        <ele>89</ele>
        <time>2015-05-17T15:47:10 +0200</time>
      </trkpt>
      <trkpt lat="48.75951" lon="2.19219">
        <ele>91</ele>
        <time>2015-05-17T15:47:23 +0200</time>
      </trkpt>
      <trkpt lat="48.75947" lon="2.19228">
        <ele>92</ele>
        <time>2015-05-17T15:47:30 +0200</time>
      </trkpt>
      <trkpt lat="48.75945" lon="2.19232">
        <ele>91</ele>
        <time>2015-05-17T15:47:37 +0200</time>
      </trkpt>
    </trkseg>
  </trk>
</gpx>